<?xml version="1.0" encoding="UTF-8"?>
<gpx xmlns="http://www.topografix.com/GPX/1/1" xmlns:gpsies="https://www.gpsies.com/GPX/1/0" creator="AllTrails https://www.alltrails.com/ - Grottammare_offida_23,05_km_-_Mag_13_course" version="1.1" xmlns:xsi="http://www.w3.org/2001/XMLSchema-instance" xsi:schemaLocation="http://www.topografix.com/GPX/1/1 http://www.topografix.com/GPX/1/1/gpx.xsd https://www.gpsies.com/GPX/1/0 https://www.gpsies.com/gpsies.xsd">
  <metadata>
    <name>Grottammare_offida_23,05_km_-_Mag_13_course</name>
    <link href="https://www.gpsies.com/">
      <text>Grottammare_offida_23,05_km_-_Mag_13_course on AllTrails</text>
    </link>
    <time>2024-05-14T08:55:47Z</time>
  </metadata>
  <trk>
    <name>Grottammare_offida_23,05_km_-_Mag_13_course on AllTrails</name>
    <trkseg>
      <trkpt lat="42.98043608" lon="13.87526035">
        <ele>4.0000000</ele>
        <time>2024-05-13T11:21:23Z</time>
      </trkpt>
      <trkpt lat="42.98048973" lon="13.87524962">
        <ele>4.0000000</ele>
        <time>2024-05-13T11:21:23Z</time>
      </trkpt>
      <trkpt lat="42.98052191" lon="13.87520670">
        <ele>4.0000000</ele>
        <time>2024-05-13T11:21:24Z</time>
      </trkpt>
      <trkpt lat="42.98055410" lon="13.87515306">
        <ele>4.0000000</ele>
        <time>2024-05-13T11:21:25Z</time>
      </trkpt>
      <trkpt lat="42.98056483" lon="13.87508869">
        <ele>4.0000000</ele>
        <time>2024-05-13T11:21:26Z</time>
      </trkpt>
      <trkpt lat="42.98055410" lon="13.87502431">
        <ele>4.0000000</ele>
        <time>2024-05-13T11:21:26Z</time>
      </trkpt>
      <trkpt lat="42.98052191" lon="13.87497067">
        <ele>5.0000000</ele>
        <time>2024-05-13T11:21:27Z</time>
      </trkpt>
      <trkpt lat="42.98048973" lon="13.87493848">
        <ele>5.0000000</ele>
        <time>2024-05-13T11:21:28Z</time>
      </trkpt>
      <trkpt lat="42.98043608" lon="13.87491703">
        <ele>5.0000000</ele>
        <time>2024-05-13T11:21:29Z</time>
      </trkpt>
      <trkpt lat="42.98037171" lon="13.87478828">
        <ele>5.0000000</ele>
        <time>2024-05-13T11:21:31Z</time>
      </trkpt>
      <trkpt lat="42.98031438" lon="13.87449793">
        <ele>6.0000000</ele>
        <time>2024-05-13T11:21:34Z</time>
      </trkpt>
      <trkpt lat="42.98025704" lon="13.87420766">
        <ele>6.0000000</ele>
        <time>2024-05-13T11:21:38Z</time>
      </trkpt>
      <trkpt lat="42.98020013" lon="13.87391924">
        <ele>5.0000000</ele>
        <time>2024-05-13T11:21:41Z</time>
      </trkpt>
      <trkpt lat="42.98012486" lon="13.87351063">
        <ele>4.0000000</ele>
        <time>2024-05-13T11:21:46Z</time>
      </trkpt>
      <trkpt lat="42.98004993" lon="13.87310385">
        <ele>4.0000000</ele>
        <time>2024-05-13T11:21:51Z</time>
      </trkpt>
      <trkpt lat="42.97997466" lon="13.87272030">
        <ele>5.0000000</ele>
        <time>2024-05-13T11:21:56Z</time>
      </trkpt>
      <trkpt lat="42.97989939" lon="13.87233682">
        <ele>5.0000000</ele>
        <time>2024-05-13T11:22:00Z</time>
      </trkpt>
      <trkpt lat="42.97982462" lon="13.87195587">
        <ele>5.0000000</ele>
        <time>2024-05-13T11:22:05Z</time>
      </trkpt>
      <trkpt lat="42.97988891" lon="13.87189149">
        <ele>5.0000000</ele>
        <time>2024-05-13T11:22:06Z</time>
      </trkpt>
      <trkpt lat="42.97991045" lon="13.87181639">
        <ele>5.0000000</ele>
        <time>2024-05-13T11:22:07Z</time>
      </trkpt>
      <trkpt lat="42.97992110" lon="13.87177348">
        <ele>5.0000000</ele>
        <time>2024-05-13T11:22:08Z</time>
      </trkpt>
      <trkpt lat="42.97989972" lon="13.87168765">
        <ele>5.0000000</ele>
        <time>2024-05-13T11:22:09Z</time>
      </trkpt>
      <trkpt lat="42.97982454" lon="13.87160181">
        <ele>5.0000000</ele>
        <time>2024-05-13T11:22:10Z</time>
      </trkpt>
      <trkpt lat="42.97978162" lon="13.87144088">
        <ele>5.0000000</ele>
        <time>2024-05-13T11:22:12Z</time>
      </trkpt>
      <trkpt lat="42.97977089" lon="13.87131214">
        <ele>5.0000000</ele>
        <time>2024-05-13T11:22:14Z</time>
      </trkpt>
      <trkpt lat="42.97980316" lon="13.87105397">
        <ele>5.0000000</ele>
        <time>2024-05-13T11:22:17Z</time>
      </trkpt>
      <trkpt lat="42.97983535" lon="13.87079715">
        <ele>5.0000000</ele>
        <time>2024-05-13T11:22:20Z</time>
      </trkpt>
      <trkpt lat="42.97984600" lon="13.87066841">
        <ele>5.0000000</ele>
        <time>2024-05-13T11:22:22Z</time>
      </trkpt>
      <trkpt lat="42.97988891" lon="13.87042164">
        <ele>6.0000000</ele>
        <time>2024-05-13T11:22:25Z</time>
      </trkpt>
      <trkpt lat="42.97993183" lon="13.87030363">
        <ele>6.0000000</ele>
        <time>2024-05-13T11:22:26Z</time>
      </trkpt>
      <trkpt lat="42.97998555" lon="13.87017488">
        <ele>6.0000000</ele>
        <time>2024-05-13T11:22:28Z</time>
      </trkpt>
      <trkpt lat="42.98008203" lon="13.87009978">
        <ele>7.0000000</ele>
        <time>2024-05-13T11:22:30Z</time>
      </trkpt>
      <trkpt lat="42.98012495" lon="13.87003540">
        <ele>7.0000000</ele>
        <time>2024-05-13T11:22:31Z</time>
      </trkpt>
      <trkpt lat="42.98014640" lon="13.86987447">
        <ele>6.0000000</ele>
        <time>2024-05-13T11:22:33Z</time>
      </trkpt>
      <trkpt lat="42.98010357" lon="13.86973500">
        <ele>6.0000000</ele>
        <time>2024-05-13T11:22:34Z</time>
      </trkpt>
      <trkpt lat="42.97999620" lon="13.86965990">
        <ele>5.0000000</ele>
        <time>2024-05-13T11:22:36Z</time>
      </trkpt>
      <trkpt lat="42.97994256" lon="13.86964917">
        <ele>5.0000000</ele>
        <time>2024-05-13T11:22:37Z</time>
      </trkpt>
      <trkpt lat="42.97979235" lon="13.86949896">
        <ele>4.0000000</ele>
        <time>2024-05-13T11:22:40Z</time>
      </trkpt>
      <trkpt lat="42.97964215" lon="13.86919856">
        <ele>3.0000000</ele>
        <time>2024-05-13T11:22:44Z</time>
      </trkpt>
      <trkpt lat="42.97954567" lon="13.86902689">
        <ele>3.0000000</ele>
        <time>2024-05-13T11:22:47Z</time>
      </trkpt>
      <trkpt lat="42.97943830" lon="13.86889815">
        <ele>3.0000000</ele>
        <time>2024-05-13T11:22:49Z</time>
      </trkpt>
      <trkpt lat="42.97925063" lon="13.86878013">
        <ele>3.0000000</ele>
        <time>2024-05-13T11:22:53Z</time>
      </trkpt>
      <trkpt lat="42.97906279" lon="13.86866211">
        <ele>4.0000000</ele>
        <time>2024-05-13T11:22:56Z</time>
      </trkpt>
      <trkpt lat="42.97889113" lon="13.86853337">
        <ele>4.0000000</ele>
        <time>2024-05-13T11:22:59Z</time>
      </trkpt>
      <trkpt lat="42.97877311" lon="13.86836171">
        <ele>5.0000000</ele>
        <time>2024-05-13T11:23:02Z</time>
      </trkpt>
      <trkpt lat="42.97868728" lon="13.86821150">
        <ele>5.0000000</ele>
        <time>2024-05-13T11:23:04Z</time>
      </trkpt>
      <trkpt lat="42.97862291" lon="13.86802911">
        <ele>5.0000000</ele>
        <time>2024-05-13T11:23:06Z</time>
      </trkpt>
      <trkpt lat="42.97853331" lon="13.86762770">
        <ele>5.0000000</ele>
        <time>2024-05-13T11:23:11Z</time>
      </trkpt>
      <trkpt lat="42.97844370" lon="13.86722629">
        <ele>4.0000000</ele>
        <time>2024-05-13T11:23:16Z</time>
      </trkpt>
      <trkpt lat="42.97835469" lon="13.86682748">
        <ele>5.0000000</ele>
        <time>2024-05-13T11:23:21Z</time>
      </trkpt>
      <trkpt lat="42.97827674" lon="13.86644577">
        <ele>6.0000000</ele>
        <time>2024-05-13T11:23:26Z</time>
      </trkpt>
      <trkpt lat="42.97819878" lon="13.86606406">
        <ele>7.0000000</ele>
        <time>2024-05-13T11:23:30Z</time>
      </trkpt>
      <trkpt lat="42.97812083" lon="13.86568235">
        <ele>8.0000000</ele>
        <time>2024-05-13T11:23:35Z</time>
      </trkpt>
      <trkpt lat="42.97804355" lon="13.86530399">
        <ele>8.0000000</ele>
        <time>2024-05-13T11:23:40Z</time>
      </trkpt>
      <trkpt lat="42.97798169" lon="13.86495983">
        <ele>7.0000000</ele>
        <time>2024-05-13T11:23:44Z</time>
      </trkpt>
      <trkpt lat="42.97791983" lon="13.86461575">
        <ele>7.0000000</ele>
        <time>2024-05-13T11:23:48Z</time>
      </trkpt>
      <trkpt lat="42.97785806" lon="13.86427176">
        <ele>7.0000000</ele>
        <time>2024-05-13T11:23:52Z</time>
      </trkpt>
      <trkpt lat="42.97779679" lon="13.86393070">
        <ele>8.0000000</ele>
        <time>2024-05-13T11:23:56Z</time>
      </trkpt>
      <trkpt lat="42.97775387" lon="13.86355519">
        <ele>9.0000000</ele>
        <time>2024-05-13T11:24:01Z</time>
      </trkpt>
      <trkpt lat="42.97773250" lon="13.86315822">
        <ele>9.0000000</ele>
        <time>2024-05-13T11:24:05Z</time>
      </trkpt>
      <trkpt lat="42.97772169" lon="13.86278179">
        <ele>8.0000000</ele>
        <time>2024-05-13T11:24:10Z</time>
      </trkpt>
      <trkpt lat="42.97771104" lon="13.86240720">
        <ele>8.0000000</ele>
        <time>2024-05-13T11:24:14Z</time>
      </trkpt>
      <trkpt lat="42.97771096" lon="13.86237502">
        <ele>8.0000000</ele>
        <time>2024-05-13T11:24:15Z</time>
      </trkpt>
      <trkpt lat="42.97769486" lon="13.86206849">
        <ele>8.0000000</ele>
        <time>2024-05-13T11:24:18Z</time>
      </trkpt>
      <trkpt lat="42.97767885" lon="13.86176347">
        <ele>9.0000000</ele>
        <time>2024-05-13T11:24:22Z</time>
      </trkpt>
      <trkpt lat="42.97767877" lon="13.86162400">
        <ele>10.000000</ele>
        <time>2024-05-13T11:24:23Z</time>
      </trkpt>
      <trkpt lat="42.97762856" lon="13.86121890">
        <ele>11.000000</ele>
        <time>2024-05-13T11:24:28Z</time>
      </trkpt>
      <trkpt lat="42.97757836" lon="13.86081389">
        <ele>11.000000</ele>
        <time>2024-05-13T11:24:33Z</time>
      </trkpt>
      <trkpt lat="42.97752857" lon="13.86041164">
        <ele>9.0000000</ele>
        <time>2024-05-13T11:24:38Z</time>
      </trkpt>
      <trkpt lat="42.97750342" lon="13.86012121">
        <ele>9.0000000</ele>
        <time>2024-05-13T11:24:41Z</time>
      </trkpt>
      <trkpt lat="42.97747836" lon="13.85983086">
        <ele>11.000000</ele>
        <time>2024-05-13T11:24:45Z</time>
      </trkpt>
      <trkpt lat="42.97745347" lon="13.85954260">
        <ele>11.000000</ele>
        <time>2024-05-13T11:24:48Z</time>
      </trkpt>
      <trkpt lat="42.97749638" lon="13.85912418">
        <ele>10.000000</ele>
        <time>2024-05-13T11:24:53Z</time>
      </trkpt>
      <trkpt lat="42.97755547" lon="13.85880156">
        <ele>10.000000</ele>
        <time>2024-05-13T11:24:57Z</time>
      </trkpt>
      <trkpt lat="42.97761440" lon="13.85848045">
        <ele>11.000000</ele>
        <time>2024-05-13T11:25:01Z</time>
      </trkpt>
      <trkpt lat="42.97771104" lon="13.85821709">
        <ele>11.000000</ele>
        <time>2024-05-13T11:25:04Z</time>
      </trkpt>
      <trkpt lat="42.97780752" lon="13.85795474">
        <ele>11.000000</ele>
        <time>2024-05-13T11:25:08Z</time>
      </trkpt>
      <trkpt lat="42.97796862" lon="13.85764318">
        <ele>11.000000</ele>
        <time>2024-05-13T11:25:12Z</time>
      </trkpt>
      <trkpt lat="42.97812938" lon="13.85733246">
        <ele>11.000000</ele>
        <time>2024-05-13T11:25:17Z</time>
      </trkpt>
      <trkpt lat="42.97829761" lon="13.85698864">
        <ele>12.000000</ele>
        <time>2024-05-13T11:25:22Z</time>
      </trkpt>
      <trkpt lat="42.97846592" lon="13.85664490">
        <ele>13.000000</ele>
        <time>2024-05-13T11:25:26Z</time>
      </trkpt>
      <trkpt lat="42.97863364" lon="13.85630249">
        <ele>13.000000</ele>
        <time>2024-05-13T11:25:31Z</time>
      </trkpt>
      <trkpt lat="42.97880530" lon="13.85608792">
        <ele>12.000000</ele>
        <time>2024-05-13T11:25:35Z</time>
      </trkpt>
      <trkpt lat="42.97904133" lon="13.85589480">
        <ele>12.000000</ele>
        <time>2024-05-13T11:25:39Z</time>
      </trkpt>
      <trkpt lat="42.97924518" lon="13.85584115">
        <ele>12.000000</ele>
        <time>2024-05-13T11:25:43Z</time>
      </trkpt>
      <trkpt lat="42.97929891" lon="13.85586261">
        <ele>12.000000</ele>
        <time>2024-05-13T11:25:44Z</time>
      </trkpt>
      <trkpt lat="42.97934174" lon="13.85586261">
        <ele>12.000000</ele>
        <time>2024-05-13T11:25:44Z</time>
      </trkpt>
      <trkpt lat="42.97941684" lon="13.85579824">
        <ele>12.000000</ele>
        <time>2024-05-13T11:25:46Z</time>
      </trkpt>
      <trkpt lat="42.97945976" lon="13.85566949">
        <ele>12.000000</ele>
        <time>2024-05-13T11:25:47Z</time>
      </trkpt>
      <trkpt lat="42.97943830" lon="13.85558366">
        <ele>12.000000</ele>
        <time>2024-05-13T11:25:48Z</time>
      </trkpt>
      <trkpt lat="42.97939538" lon="13.85551929">
        <ele>13.000000</ele>
        <time>2024-05-13T11:25:50Z</time>
      </trkpt>
      <trkpt lat="42.97934174" lon="13.85548710">
        <ele>13.000000</ele>
        <time>2024-05-13T11:25:50Z</time>
      </trkpt>
      <trkpt lat="42.97929883" lon="13.85548710">
        <ele>13.000000</ele>
        <time>2024-05-13T11:25:51Z</time>
      </trkpt>
      <trkpt lat="42.97918081" lon="13.85537981">
        <ele>13.000000</ele>
        <time>2024-05-13T11:25:53Z</time>
      </trkpt>
      <trkpt lat="42.97911643" lon="13.85531544">
        <ele>13.000000</ele>
        <time>2024-05-13T11:25:55Z</time>
      </trkpt>
      <trkpt lat="42.97907352" lon="13.85531544">
        <ele>13.000000</ele>
        <time>2024-05-13T11:25:55Z</time>
      </trkpt>
      <trkpt lat="42.97903060" lon="13.85533690">
        <ele>13.000000</ele>
        <time>2024-05-13T11:25:56Z</time>
      </trkpt>
      <trkpt lat="42.97898769" lon="13.85541200">
        <ele>12.000000</ele>
        <time>2024-05-13T11:25:57Z</time>
      </trkpt>
      <trkpt lat="42.97891259" lon="13.85576605">
        <ele>12.000000</ele>
        <time>2024-05-13T11:26:02Z</time>
      </trkpt>
      <trkpt lat="42.97889113" lon="13.85584115">
        <ele>12.000000</ele>
        <time>2024-05-13T11:26:02Z</time>
      </trkpt>
      <trkpt lat="42.97878384" lon="13.85592699">
        <ele>12.000000</ele>
        <time>2024-05-13T11:26:04Z</time>
      </trkpt>
      <trkpt lat="42.97873020" lon="13.85592699">
        <ele>12.000000</ele>
        <time>2024-05-13T11:26:05Z</time>
      </trkpt>
      <trkpt lat="42.97867655" lon="13.85588407">
        <ele>12.000000</ele>
        <time>2024-05-13T11:26:06Z</time>
      </trkpt>
      <trkpt lat="42.97851570" lon="13.85575532">
        <ele>12.000000</ele>
        <time>2024-05-13T11:26:09Z</time>
      </trkpt>
      <trkpt lat="42.97832795" lon="13.85561585">
        <ele>12.000000</ele>
        <time>2024-05-13T11:26:13Z</time>
      </trkpt>
      <trkpt lat="42.97814019" lon="13.85547637">
        <ele>13.000000</ele>
        <time>2024-05-13T11:26:16Z</time>
      </trkpt>
      <trkpt lat="42.97791481" lon="13.85533690">
        <ele>13.000000</ele>
        <time>2024-05-13T11:26:20Z</time>
      </trkpt>
      <trkpt lat="42.97783970" lon="13.85526180">
        <ele>14.000000</ele>
        <time>2024-05-13T11:26:22Z</time>
      </trkpt>
      <trkpt lat="42.97773250" lon="13.85507941">
        <ele>15.000000</ele>
        <time>2024-05-13T11:26:24Z</time>
      </trkpt>
      <trkpt lat="42.97770031" lon="13.85496139">
        <ele>16.000000</ele>
        <time>2024-05-13T11:26:26Z</time>
      </trkpt>
      <trkpt lat="42.97766259" lon="13.85471940">
        <ele>16.000000</ele>
        <time>2024-05-13T11:26:29Z</time>
      </trkpt>
      <trkpt lat="42.97762521" lon="13.85447859">
        <ele>16.000000</ele>
        <time>2024-05-13T11:26:32Z</time>
      </trkpt>
      <trkpt lat="42.97759830" lon="13.85416670">
        <ele>15.000000</ele>
        <time>2024-05-13T11:26:35Z</time>
      </trkpt>
      <trkpt lat="42.97757157" lon="13.85385632">
        <ele>15.000000</ele>
        <time>2024-05-13T11:26:39Z</time>
      </trkpt>
      <trkpt lat="42.97753930" lon="13.85345835">
        <ele>17.000000</ele>
        <time>2024-05-13T11:26:44Z</time>
      </trkpt>
      <trkpt lat="42.97750719" lon="13.85306239">
        <ele>18.000000</ele>
        <time>2024-05-13T11:26:48Z</time>
      </trkpt>
      <trkpt lat="42.97748297" lon="13.85273700">
        <ele>18.000000</ele>
        <time>2024-05-13T11:26:52Z</time>
      </trkpt>
      <trkpt lat="42.97745875" lon="13.85241170">
        <ele>17.000000</ele>
        <time>2024-05-13T11:26:56Z</time>
      </trkpt>
      <trkpt lat="42.97743452" lon="13.85208640">
        <ele>17.000000</ele>
        <time>2024-05-13T11:27:00Z</time>
      </trkpt>
      <trkpt lat="42.97741055" lon="13.85176420">
        <ele>18.000000</ele>
        <time>2024-05-13T11:27:04Z</time>
      </trkpt>
      <trkpt lat="42.97737468" lon="13.85139497">
        <ele>19.000000</ele>
        <time>2024-05-13T11:27:08Z</time>
      </trkpt>
      <trkpt lat="42.97733888" lon="13.85102575">
        <ele>19.000000</ele>
        <time>2024-05-13T11:27:12Z</time>
      </trkpt>
      <trkpt lat="42.97730335" lon="13.85065913">
        <ele>19.000000</ele>
        <time>2024-05-13T11:27:17Z</time>
      </trkpt>
      <trkpt lat="42.97729262" lon="13.85058403">
        <ele>19.000000</ele>
        <time>2024-05-13T11:27:18Z</time>
      </trkpt>
      <trkpt lat="42.97728180" lon="13.85038018">
        <ele>20.000000</ele>
        <time>2024-05-13T11:27:20Z</time>
      </trkpt>
      <trkpt lat="42.97727108" lon="13.85029435">
        <ele>20.000000</ele>
        <time>2024-05-13T11:27:21Z</time>
      </trkpt>
      <trkpt lat="42.97723260" lon="13.84989101">
        <ele>22.000000</ele>
        <time>2024-05-13T11:27:26Z</time>
      </trkpt>
      <trkpt lat="42.97719421" lon="13.84948776">
        <ele>23.000000</ele>
        <time>2024-05-13T11:27:31Z</time>
      </trkpt>
      <trkpt lat="42.97715582" lon="13.84908450">
        <ele>24.000000</ele>
        <time>2024-05-13T11:27:35Z</time>
      </trkpt>
      <trkpt lat="42.97711743" lon="13.84868117">
        <ele>26.000000</ele>
        <time>2024-05-13T11:27:40Z</time>
      </trkpt>
      <trkpt lat="42.97707905" lon="13.84827791">
        <ele>26.000000</ele>
        <time>2024-05-13T11:27:45Z</time>
      </trkpt>
      <trkpt lat="42.97704066" lon="13.84787466">
        <ele>26.000000</ele>
        <time>2024-05-13T11:27:50Z</time>
      </trkpt>
      <trkpt lat="42.97700227" lon="13.84747141">
        <ele>24.000000</ele>
        <time>2024-05-13T11:27:54Z</time>
      </trkpt>
      <trkpt lat="42.97696388" lon="13.84706807">
        <ele>23.000000</ele>
        <time>2024-05-13T11:27:59Z</time>
      </trkpt>
      <trkpt lat="42.97692549" lon="13.84666481">
        <ele>24.000000</ele>
        <time>2024-05-13T11:28:04Z</time>
      </trkpt>
      <trkpt lat="42.97688702" lon="13.84626156">
        <ele>26.000000</ele>
        <time>2024-05-13T11:28:09Z</time>
      </trkpt>
      <trkpt lat="42.97684863" lon="13.84585831">
        <ele>26.000000</ele>
        <time>2024-05-13T11:28:14Z</time>
      </trkpt>
      <trkpt lat="42.97681024" lon="13.84545497">
        <ele>27.000000</ele>
        <time>2024-05-13T11:28:18Z</time>
      </trkpt>
      <trkpt lat="42.97677185" lon="13.84505172">
        <ele>27.000000</ele>
        <time>2024-05-13T11:28:23Z</time>
      </trkpt>
      <trkpt lat="42.97673463" lon="13.84466171">
        <ele>27.000000</ele>
        <time>2024-05-13T11:28:28Z</time>
      </trkpt>
      <trkpt lat="42.97678300" lon="13.84425301">
        <ele>27.000000</ele>
        <time>2024-05-13T11:28:33Z</time>
      </trkpt>
      <trkpt lat="42.97683136" lon="13.84384439">
        <ele>27.000000</ele>
        <time>2024-05-13T11:28:38Z</time>
      </trkpt>
      <trkpt lat="42.97687981" lon="13.84343577">
        <ele>26.000000</ele>
        <time>2024-05-13T11:28:42Z</time>
      </trkpt>
      <trkpt lat="42.97692817" lon="13.84302715">
        <ele>25.000000</ele>
        <time>2024-05-13T11:28:47Z</time>
      </trkpt>
      <trkpt lat="42.97697662" lon="13.84261853">
        <ele>26.000000</ele>
        <time>2024-05-13T11:28:52Z</time>
      </trkpt>
      <trkpt lat="42.97702498" lon="13.84220983">
        <ele>27.000000</ele>
        <time>2024-05-13T11:28:57Z</time>
      </trkpt>
      <trkpt lat="42.97707335" lon="13.84180122">
        <ele>28.000000</ele>
        <time>2024-05-13T11:29:02Z</time>
      </trkpt>
      <trkpt lat="42.97712179" lon="13.84139260">
        <ele>27.000000</ele>
        <time>2024-05-13T11:29:07Z</time>
      </trkpt>
      <trkpt lat="42.97717016" lon="13.84098398">
        <ele>25.000000</ele>
        <time>2024-05-13T11:29:11Z</time>
      </trkpt>
      <trkpt lat="42.97721743" lon="13.84058475">
        <ele>23.000000</ele>
        <time>2024-05-13T11:29:16Z</time>
      </trkpt>
      <trkpt lat="42.97726940" lon="13.84022626">
        <ele>23.000000</ele>
        <time>2024-05-13T11:29:21Z</time>
      </trkpt>
      <trkpt lat="42.97732137" lon="13.83986785">
        <ele>24.000000</ele>
        <time>2024-05-13T11:29:25Z</time>
      </trkpt>
      <trkpt lat="42.97737333" lon="13.83950944">
        <ele>25.000000</ele>
        <time>2024-05-13T11:29:29Z</time>
      </trkpt>
      <trkpt lat="42.97742530" lon="13.83915094">
        <ele>25.000000</ele>
        <time>2024-05-13T11:29:33Z</time>
      </trkpt>
      <trkpt lat="42.97747727" lon="13.83879253">
        <ele>25.000000</ele>
        <time>2024-05-13T11:29:38Z</time>
      </trkpt>
      <trkpt lat="42.97752857" lon="13.83843898">
        <ele>24.000000</ele>
        <time>2024-05-13T11:29:42Z</time>
      </trkpt>
      <trkpt lat="42.97757148" lon="13.83808493">
        <ele>24.000000</ele>
        <time>2024-05-13T11:29:46Z</time>
      </trkpt>
      <trkpt lat="42.97762513" lon="13.83775234">
        <ele>25.000000</ele>
        <time>2024-05-13T11:29:50Z</time>
      </trkpt>
      <trkpt lat="42.97767885" lon="13.83736518">
        <ele>26.000000</ele>
        <time>2024-05-13T11:29:55Z</time>
      </trkpt>
      <trkpt lat="42.97773241" lon="13.83697986">
        <ele>27.000000</ele>
        <time>2024-05-13T11:29:59Z</time>
      </trkpt>
      <trkpt lat="42.97781841" lon="13.83658449">
        <ele>29.000000</ele>
        <time>2024-05-13T11:30:04Z</time>
      </trkpt>
      <trkpt lat="42.97790441" lon="13.83618920">
        <ele>29.000000</ele>
        <time>2024-05-13T11:30:09Z</time>
      </trkpt>
      <trkpt lat="42.97799041" lon="13.83579391">
        <ele>27.000000</ele>
        <time>2024-05-13T11:30:14Z</time>
      </trkpt>
      <trkpt lat="42.97807641" lon="13.83539853">
        <ele>27.000000</ele>
        <time>2024-05-13T11:30:19Z</time>
      </trkpt>
      <trkpt lat="42.97816249" lon="13.83500324">
        <ele>27.000000</ele>
        <time>2024-05-13T11:30:24Z</time>
      </trkpt>
      <trkpt lat="42.97824849" lon="13.83460795">
        <ele>28.000000</ele>
        <time>2024-05-13T11:30:28Z</time>
      </trkpt>
      <trkpt lat="42.97833449" lon="13.83421266">
        <ele>28.000000</ele>
        <time>2024-05-13T11:30:33Z</time>
      </trkpt>
      <trkpt lat="42.97842049" lon="13.83381729">
        <ele>29.000000</ele>
        <time>2024-05-13T11:30:38Z</time>
      </trkpt>
      <trkpt lat="42.97850657" lon="13.83342199">
        <ele>30.000000</ele>
        <time>2024-05-13T11:30:43Z</time>
      </trkpt>
      <trkpt lat="42.97859257" lon="13.83302670">
        <ele>30.000000</ele>
        <time>2024-05-13T11:30:48Z</time>
      </trkpt>
      <trkpt lat="42.97867856" lon="13.83263133">
        <ele>31.000000</ele>
        <time>2024-05-13T11:30:53Z</time>
      </trkpt>
      <trkpt lat="42.97876456" lon="13.83223604">
        <ele>33.000000</ele>
        <time>2024-05-13T11:30:57Z</time>
      </trkpt>
      <trkpt lat="42.97884821" lon="13.83185148">
        <ele>32.000000</ele>
        <time>2024-05-13T11:31:02Z</time>
      </trkpt>
      <trkpt lat="42.97891267" lon="13.83154680">
        <ele>30.000000</ele>
        <time>2024-05-13T11:31:06Z</time>
      </trkpt>
      <trkpt lat="42.97897721" lon="13.83124220">
        <ele>29.000000</ele>
        <time>2024-05-13T11:31:10Z</time>
      </trkpt>
      <trkpt lat="42.97904133" lon="13.83093953">
        <ele>29.000000</ele>
        <time>2024-05-13T11:31:13Z</time>
      </trkpt>
      <trkpt lat="42.97910738" lon="13.83054164">
        <ele>31.000000</ele>
        <time>2024-05-13T11:31:18Z</time>
      </trkpt>
      <trkpt lat="42.97917343" lon="13.83014383">
        <ele>31.000000</ele>
        <time>2024-05-13T11:31:23Z</time>
      </trkpt>
      <trkpt lat="42.97923948" lon="13.82974594">
        <ele>32.000000</ele>
        <time>2024-05-13T11:31:28Z</time>
      </trkpt>
      <trkpt lat="42.97930553" lon="13.82934814">
        <ele>33.000000</ele>
        <time>2024-05-13T11:31:33Z</time>
      </trkpt>
      <trkpt lat="42.97937158" lon="13.82895025">
        <ele>32.000000</ele>
        <time>2024-05-13T11:31:37Z</time>
      </trkpt>
      <trkpt lat="42.97943763" lon="13.82855244">
        <ele>32.000000</ele>
        <time>2024-05-13T11:31:42Z</time>
      </trkpt>
      <trkpt lat="42.97950267" lon="13.82816076">
        <ele>32.000000</ele>
        <time>2024-05-13T11:31:47Z</time>
      </trkpt>
      <trkpt lat="42.97959228" lon="13.82785616">
        <ele>33.000000</ele>
        <time>2024-05-13T11:31:51Z</time>
      </trkpt>
      <trkpt lat="42.97968188" lon="13.82755156">
        <ele>33.000000</ele>
        <time>2024-05-13T11:31:55Z</time>
      </trkpt>
      <trkpt lat="42.97977098" lon="13.82724881">
        <ele>33.000000</ele>
        <time>2024-05-13T11:31:58Z</time>
      </trkpt>
      <trkpt lat="42.97985672" lon="13.82694840">
        <ele>33.000000</ele>
        <time>2024-05-13T11:32:02Z</time>
      </trkpt>
      <trkpt lat="42.97993912" lon="13.82660256">
        <ele>35.000000</ele>
        <time>2024-05-13T11:32:06Z</time>
      </trkpt>
      <trkpt lat="42.98002151" lon="13.82625672">
        <ele>36.000000</ele>
        <time>2024-05-13T11:32:11Z</time>
      </trkpt>
      <trkpt lat="42.98010399" lon="13.82591089">
        <ele>36.000000</ele>
        <time>2024-05-13T11:32:15Z</time>
      </trkpt>
      <trkpt lat="42.98018638" lon="13.82556505">
        <ele>36.000000</ele>
        <time>2024-05-13T11:32:19Z</time>
      </trkpt>
      <trkpt lat="42.98026878" lon="13.82521930">
        <ele>36.000000</ele>
        <time>2024-05-13T11:32:23Z</time>
      </trkpt>
      <trkpt lat="42.98035025" lon="13.82487773">
        <ele>37.000000</ele>
        <time>2024-05-13T11:32:28Z</time>
      </trkpt>
      <trkpt lat="42.98038244" lon="13.82458378">
        <ele>38.000000</ele>
        <time>2024-05-13T11:32:31Z</time>
      </trkpt>
      <trkpt lat="42.98041471" lon="13.82428983">
        <ele>38.000000</ele>
        <time>2024-05-13T11:32:35Z</time>
      </trkpt>
      <trkpt lat="42.98044681" lon="13.82399797">
        <ele>39.000000</ele>
        <time>2024-05-13T11:32:38Z</time>
      </trkpt>
      <trkpt lat="42.98044681" lon="13.82362154">
        <ele>39.000000</ele>
        <time>2024-05-13T11:32:43Z</time>
      </trkpt>
      <trkpt lat="42.98044681" lon="13.82324695">
        <ele>38.000000</ele>
        <time>2024-05-13T11:32:47Z</time>
      </trkpt>
      <trkpt lat="42.98040809" lon="13.82289634">
        <ele>37.000000</ele>
        <time>2024-05-13T11:32:51Z</time>
      </trkpt>
      <trkpt lat="42.98036936" lon="13.82254580">
        <ele>37.000000</ele>
        <time>2024-05-13T11:32:55Z</time>
      </trkpt>
      <trkpt lat="42.98033072" lon="13.82219519">
        <ele>37.000000</ele>
        <time>2024-05-13T11:32:59Z</time>
      </trkpt>
      <trkpt lat="42.98029200" lon="13.82184466">
        <ele>37.000000</ele>
        <time>2024-05-13T11:33:04Z</time>
      </trkpt>
      <trkpt lat="42.98025378" lon="13.82149815">
        <ele>37.000000</ele>
        <time>2024-05-13T11:33:08Z</time>
      </trkpt>
      <trkpt lat="42.98018379" lon="13.82108417">
        <ele>38.000000</ele>
        <time>2024-05-13T11:33:13Z</time>
      </trkpt>
      <trkpt lat="42.98011422" lon="13.82067203">
        <ele>40.000000</ele>
        <time>2024-05-13T11:33:18Z</time>
      </trkpt>
      <trkpt lat="42.98005269" lon="13.82027414">
        <ele>40.000000</ele>
        <time>2024-05-13T11:33:23Z</time>
      </trkpt>
      <trkpt lat="42.97999125" lon="13.81987625">
        <ele>39.000000</ele>
        <time>2024-05-13T11:33:27Z</time>
      </trkpt>
      <trkpt lat="42.97992981" lon="13.81947836">
        <ele>39.000000</ele>
        <time>2024-05-13T11:33:32Z</time>
      </trkpt>
      <trkpt lat="42.97986838" lon="13.81908056">
        <ele>39.000000</ele>
        <time>2024-05-13T11:33:37Z</time>
      </trkpt>
      <trkpt lat="42.97980694" lon="13.81868267">
        <ele>41.000000</ele>
        <time>2024-05-13T11:33:42Z</time>
      </trkpt>
      <trkpt lat="42.97974550" lon="13.81828486">
        <ele>41.000000</ele>
        <time>2024-05-13T11:33:46Z</time>
      </trkpt>
      <trkpt lat="42.97968506" lon="13.81789326">
        <ele>42.000000</ele>
        <time>2024-05-13T11:33:51Z</time>
      </trkpt>
      <trkpt lat="42.97963930" lon="13.81754910">
        <ele>44.000000</ele>
        <time>2024-05-13T11:33:55Z</time>
      </trkpt>
      <trkpt lat="42.97959362" lon="13.81720502">
        <ele>45.000000</ele>
        <time>2024-05-13T11:33:59Z</time>
      </trkpt>
      <trkpt lat="42.97954794" lon="13.81686086">
        <ele>44.000000</ele>
        <time>2024-05-13T11:34:03Z</time>
      </trkpt>
      <trkpt lat="42.97950267" lon="13.81651997">
        <ele>44.000000</ele>
        <time>2024-05-13T11:34:07Z</time>
      </trkpt>
      <trkpt lat="42.97942740" lon="13.81614899">
        <ele>46.000000</ele>
        <time>2024-05-13T11:34:12Z</time>
      </trkpt>
      <trkpt lat="42.97935247" lon="13.81577968">
        <ele>50.000000</ele>
        <time>2024-05-13T11:34:17Z</time>
      </trkpt>
      <trkpt lat="42.97934702" lon="13.81546234">
        <ele>50.000000</ele>
        <time>2024-05-13T11:34:20Z</time>
      </trkpt>
      <trkpt lat="42.97934174" lon="13.81514668">
        <ele>48.000000</ele>
        <time>2024-05-13T11:34:24Z</time>
      </trkpt>
      <trkpt lat="42.97937401" lon="13.81473530">
        <ele>45.000000</ele>
        <time>2024-05-13T11:34:29Z</time>
      </trkpt>
      <trkpt lat="42.97940628" lon="13.81432391">
        <ele>45.000000</ele>
        <time>2024-05-13T11:34:34Z</time>
      </trkpt>
      <trkpt lat="42.97943855" lon="13.81391261">
        <ele>45.000000</ele>
        <time>2024-05-13T11:34:38Z</time>
      </trkpt>
      <trkpt lat="42.97947057" lon="13.81350517">
        <ele>45.000000</ele>
        <time>2024-05-13T11:34:43Z</time>
      </trkpt>
      <trkpt lat="42.97949915" lon="13.81315028">
        <ele>45.000000</ele>
        <time>2024-05-13T11:34:48Z</time>
      </trkpt>
      <trkpt lat="42.97952782" lon="13.81279539">
        <ele>46.000000</ele>
        <time>2024-05-13T11:34:52Z</time>
      </trkpt>
      <trkpt lat="42.97955632" lon="13.81244301">
        <ele>47.000000</ele>
        <time>2024-05-13T11:34:56Z</time>
      </trkpt>
      <trkpt lat="42.97959119" lon="13.81212308">
        <ele>48.000000</ele>
        <time>2024-05-13T11:35:00Z</time>
      </trkpt>
      <trkpt lat="42.97962614" lon="13.81180314">
        <ele>49.000000</ele>
        <time>2024-05-13T11:35:03Z</time>
      </trkpt>
      <trkpt lat="42.97966109" lon="13.81148320">
        <ele>48.000000</ele>
        <time>2024-05-13T11:35:07Z</time>
      </trkpt>
      <trkpt lat="42.97969579" lon="13.81116628">
        <ele>47.000000</ele>
        <time>2024-05-13T11:35:11Z</time>
      </trkpt>
      <trkpt lat="42.97969588" lon="13.81116628">
        <ele>47.000000</ele>
        <time>2024-05-13T11:35:11Z</time>
      </trkpt>
      <trkpt lat="42.97973343" lon="13.81074015">
        <ele>47.000000</ele>
        <time>2024-05-13T11:35:16Z</time>
      </trkpt>
      <trkpt lat="42.97977106" lon="13.81031401">
        <ele>47.000000</ele>
        <time>2024-05-13T11:35:21Z</time>
      </trkpt>
      <trkpt lat="42.97980870" lon="13.80988787">
        <ele>48.000000</ele>
        <time>2024-05-13T11:35:26Z</time>
      </trkpt>
      <trkpt lat="42.97984633" lon="13.80946174">
        <ele>48.000000</ele>
        <time>2024-05-13T11:35:31Z</time>
      </trkpt>
      <trkpt lat="42.97988397" lon="13.80903560">
        <ele>48.000000</ele>
        <time>2024-05-13T11:35:36Z</time>
      </trkpt>
      <trkpt lat="42.97992160" lon="13.80860947">
        <ele>49.000000</ele>
        <time>2024-05-13T11:35:41Z</time>
      </trkpt>
      <trkpt lat="42.97995924" lon="13.80818333">
        <ele>49.000000</ele>
        <time>2024-05-13T11:35:46Z</time>
      </trkpt>
      <trkpt lat="42.97999620" lon="13.80776524">
        <ele>49.000000</ele>
        <time>2024-05-13T11:35:51Z</time>
      </trkpt>
      <trkpt lat="42.97998270" lon="13.80740490">
        <ele>49.000000</ele>
        <time>2024-05-13T11:35:56Z</time>
      </trkpt>
      <trkpt lat="42.97996929" lon="13.80704465">
        <ele>49.000000</ele>
        <time>2024-05-13T11:36:00Z</time>
      </trkpt>
      <trkpt lat="42.97995580" lon="13.80668439">
        <ele>50.000000</ele>
        <time>2024-05-13T11:36:04Z</time>
      </trkpt>
      <trkpt lat="42.97994256" lon="13.80632758">
        <ele>51.000000</ele>
        <time>2024-05-13T11:36:08Z</time>
      </trkpt>
      <trkpt lat="42.97991381" lon="13.80599414">
        <ele>51.000000</ele>
        <time>2024-05-13T11:36:12Z</time>
      </trkpt>
      <trkpt lat="42.97988514" lon="13.80566080">
        <ele>51.000000</ele>
        <time>2024-05-13T11:36:16Z</time>
      </trkpt>
      <trkpt lat="42.97985672" lon="13.80532979">
        <ele>51.000000</ele>
        <time>2024-05-13T11:36:20Z</time>
      </trkpt>
      <trkpt lat="42.97980828" lon="13.80499100">
        <ele>51.000000</ele>
        <time>2024-05-13T11:36:24Z</time>
      </trkpt>
      <trkpt lat="42.97976016" lon="13.80465388">
        <ele>51.000000</ele>
        <time>2024-05-13T11:36:28Z</time>
      </trkpt>
      <trkpt lat="42.97968490" lon="13.80426135">
        <ele>52.000000</ele>
        <time>2024-05-13T11:36:33Z</time>
      </trkpt>
      <trkpt lat="42.97961005" lon="13.80387067">
        <ele>52.000000</ele>
        <time>2024-05-13T11:36:38Z</time>
      </trkpt>
      <trkpt lat="42.97954978" lon="13.80351796">
        <ele>53.000000</ele>
        <time>2024-05-13T11:36:42Z</time>
      </trkpt>
      <trkpt lat="42.97948960" lon="13.80316525">
        <ele>53.000000</ele>
        <time>2024-05-13T11:36:46Z</time>
      </trkpt>
      <trkpt lat="42.97942933" lon="13.80281254">
        <ele>55.000000</ele>
        <time>2024-05-13T11:36:50Z</time>
      </trkpt>
      <trkpt lat="42.97936915" lon="13.80245991">
        <ele>56.000000</ele>
        <time>2024-05-13T11:36:55Z</time>
      </trkpt>
      <trkpt lat="42.97930964" lon="13.80211114">
        <ele>58.000000</ele>
        <time>2024-05-13T11:36:59Z</time>
      </trkpt>
      <trkpt lat="42.97925046" lon="13.80176430">
        <ele>57.000000</ele>
        <time>2024-05-13T11:37:03Z</time>
      </trkpt>
      <trkpt lat="42.97919129" lon="13.80141754">
        <ele>57.000000</ele>
        <time>2024-05-13T11:37:07Z</time>
      </trkpt>
      <trkpt lat="42.97913211" lon="13.80107078">
        <ele>57.000000</ele>
        <time>2024-05-13T11:37:11Z</time>
      </trkpt>
      <trkpt lat="42.97907352" lon="13.80072712">
        <ele>57.000000</ele>
        <time>2024-05-13T11:37:15Z</time>
      </trkpt>
      <trkpt lat="42.97900898" lon="13.80030769">
        <ele>56.000000</ele>
        <time>2024-05-13T11:37:21Z</time>
      </trkpt>
      <trkpt lat="42.97894444" lon="13.79988835">
        <ele>56.000000</ele>
        <time>2024-05-13T11:37:26Z</time>
      </trkpt>
      <trkpt lat="42.97887990" lon="13.79946900">
        <ele>56.000000</ele>
        <time>2024-05-13T11:37:31Z</time>
      </trkpt>
      <trkpt lat="42.97881544" lon="13.79904965">
        <ele>56.000000</ele>
        <time>2024-05-13T11:37:36Z</time>
      </trkpt>
      <trkpt lat="42.97875165" lon="13.79863500">
        <ele>55.000000</ele>
        <time>2024-05-13T11:37:41Z</time>
      </trkpt>
      <trkpt lat="42.97867278" lon="13.79832680">
        <ele>55.000000</ele>
        <time>2024-05-13T11:37:44Z</time>
      </trkpt>
      <trkpt lat="42.97859391" lon="13.79801860">
        <ele>57.000000</ele>
        <time>2024-05-13T11:37:48Z</time>
      </trkpt>
      <trkpt lat="42.97851562" lon="13.79771232">
        <ele>58.000000</ele>
        <time>2024-05-13T11:37:52Z</time>
      </trkpt>
      <trkpt lat="42.97843675" lon="13.79742918">
        <ele>58.000000</ele>
        <time>2024-05-13T11:37:56Z</time>
      </trkpt>
      <trkpt lat="42.97835796" lon="13.79714612">
        <ele>59.000000</ele>
        <time>2024-05-13T11:37:59Z</time>
      </trkpt>
      <trkpt lat="42.97827959" lon="13.79686474">
        <ele>59.000000</ele>
        <time>2024-05-13T11:38:03Z</time>
      </trkpt>
      <trkpt lat="42.97823675" lon="13.79660725">
        <ele>59.000000</ele>
        <time>2024-05-13T11:38:06Z</time>
      </trkpt>
      <trkpt lat="42.97818831" lon="13.79628463">
        <ele>59.000000</ele>
        <time>2024-05-13T11:38:10Z</time>
      </trkpt>
      <trkpt lat="42.97813986" lon="13.79596201">
        <ele>61.000000</ele>
        <time>2024-05-13T11:38:14Z</time>
      </trkpt>
      <trkpt lat="42.97809150" lon="13.79563948">
        <ele>61.000000</ele>
        <time>2024-05-13T11:38:17Z</time>
      </trkpt>
      <trkpt lat="42.97804355" lon="13.79531979">
        <ele>59.000000</ele>
        <time>2024-05-13T11:38:21Z</time>
      </trkpt>
      <trkpt lat="42.97796292" lon="13.79506180">
        <ele>60.000000</ele>
        <time>2024-05-13T11:38:25Z</time>
      </trkpt>
      <trkpt lat="42.97788262" lon="13.79480481">
        <ele>61.000000</ele>
        <time>2024-05-13T11:38:28Z</time>
      </trkpt>
      <trkpt lat="42.97774298" lon="13.79456316">
        <ele>62.000000</ele>
        <time>2024-05-13T11:38:31Z</time>
      </trkpt>
      <trkpt lat="42.97760367" lon="13.79432201">
        <ele>62.000000</ele>
        <time>2024-05-13T11:38:35Z</time>
      </trkpt>
      <trkpt lat="42.97743184" lon="13.79404817">
        <ele>62.000000</ele>
        <time>2024-05-13T11:38:39Z</time>
      </trkpt>
      <trkpt lat="42.97726035" lon="13.79377484">
        <ele>62.000000</ele>
        <time>2024-05-13T11:38:43Z</time>
      </trkpt>
      <trkpt lat="42.97712925" lon="13.79346965">
        <ele>62.000000</ele>
        <time>2024-05-13T11:38:48Z</time>
      </trkpt>
      <trkpt lat="42.97699816" lon="13.79316447">
        <ele>62.000000</ele>
        <time>2024-05-13T11:38:52Z</time>
      </trkpt>
      <trkpt lat="42.97686707" lon="13.79285937">
        <ele>62.000000</ele>
        <time>2024-05-13T11:38:56Z</time>
      </trkpt>
      <trkpt lat="42.97673597" lon="13.79255418">
        <ele>62.000000</ele>
        <time>2024-05-13T11:39:00Z</time>
      </trkpt>
      <trkpt lat="42.97660589" lon="13.79225134">
        <ele>63.000000</ele>
        <time>2024-05-13T11:39:04Z</time>
      </trkpt>
      <trkpt lat="42.97646130" lon="13.79193602">
        <ele>64.000000</ele>
        <time>2024-05-13T11:39:09Z</time>
      </trkpt>
      <trkpt lat="42.97631680" lon="13.79162069">
        <ele>64.000000</ele>
        <time>2024-05-13T11:39:13Z</time>
      </trkpt>
      <trkpt lat="42.97617296" lon="13.79130679">
        <ele>66.000000</ele>
        <time>2024-05-13T11:39:17Z</time>
      </trkpt>
      <trkpt lat="42.97613382" lon="13.79122138">
        <ele>66.000000</ele>
        <time>2024-05-13T11:39:18Z</time>
      </trkpt>
      <trkpt lat="42.97643389" lon="13.79113026">
        <ele>62.000000</ele>
        <time>2024-05-13T11:39:23Z</time>
      </trkpt>
      <trkpt lat="42.97673463" lon="13.79103899">
        <ele>62.000000</ele>
        <time>2024-05-13T11:39:28Z</time>
      </trkpt>
      <trkpt lat="42.97703471" lon="13.79092642">
        <ele>62.000000</ele>
        <time>2024-05-13T11:39:33Z</time>
      </trkpt>
      <trkpt lat="42.97733545" lon="13.79081368">
        <ele>62.000000</ele>
        <time>2024-05-13T11:39:38Z</time>
      </trkpt>
      <trkpt lat="42.97726906" lon="13.79043012">
        <ele>64.000000</ele>
        <time>2024-05-13T11:39:43Z</time>
      </trkpt>
      <trkpt lat="42.97720276" lon="13.79004665">
        <ele>65.000000</ele>
        <time>2024-05-13T11:39:48Z</time>
      </trkpt>
      <trkpt lat="42.97713646" lon="13.78966310">
        <ele>64.000000</ele>
        <time>2024-05-13T11:39:52Z</time>
      </trkpt>
      <trkpt lat="42.97707016" lon="13.78927962">
        <ele>64.000000</ele>
        <time>2024-05-13T11:39:57Z</time>
      </trkpt>
      <trkpt lat="42.97700386" lon="13.78889607">
        <ele>64.000000</ele>
        <time>2024-05-13T11:40:01Z</time>
      </trkpt>
      <trkpt lat="42.97693848" lon="13.78851771">
        <ele>64.000000</ele>
        <time>2024-05-13T11:40:06Z</time>
      </trkpt>
      <trkpt lat="42.97687394" lon="13.78818436">
        <ele>64.000000</ele>
        <time>2024-05-13T11:40:10Z</time>
      </trkpt>
      <trkpt lat="42.97680940" lon="13.78785101">
        <ele>64.000000</ele>
        <time>2024-05-13T11:40:14Z</time>
      </trkpt>
      <trkpt lat="42.97674536" lon="13.78751993">
        <ele>64.000000</ele>
        <time>2024-05-13T11:40:18Z</time>
      </trkpt>
      <trkpt lat="42.97665928" lon="13.78715976">
        <ele>64.000000</ele>
        <time>2024-05-13T11:40:23Z</time>
      </trkpt>
      <trkpt lat="42.97657328" lon="13.78679959">
        <ele>64.000000</ele>
        <time>2024-05-13T11:40:27Z</time>
      </trkpt>
      <trkpt lat="42.97648728" lon="13.78643942">
        <ele>64.000000</ele>
        <time>2024-05-13T11:40:31Z</time>
      </trkpt>
      <trkpt lat="42.97640204" lon="13.78608226">
        <ele>65.000000</ele>
        <time>2024-05-13T11:40:36Z</time>
      </trkpt>
      <trkpt lat="42.97635041" lon="13.78573601">
        <ele>66.000000</ele>
        <time>2024-05-13T11:40:40Z</time>
      </trkpt>
      <trkpt lat="42.97629877" lon="13.78538975">
        <ele>67.000000</ele>
        <time>2024-05-13T11:40:44Z</time>
      </trkpt>
      <trkpt lat="42.97624714" lon="13.78504349">
        <ele>67.000000</ele>
        <time>2024-05-13T11:40:48Z</time>
      </trkpt>
      <trkpt lat="42.97619551" lon="13.78469724">
        <ele>67.000000</ele>
        <time>2024-05-13T11:40:52Z</time>
      </trkpt>
      <trkpt lat="42.97614455" lon="13.78435492">
        <ele>67.000000</ele>
        <time>2024-05-13T11:40:57Z</time>
      </trkpt>
      <trkpt lat="42.97601555" lon="13.78404689">
        <ele>68.000000</ele>
        <time>2024-05-13T11:41:01Z</time>
      </trkpt>
      <trkpt lat="42.97588664" lon="13.78373885">
        <ele>68.000000</ele>
        <time>2024-05-13T11:41:05Z</time>
      </trkpt>
      <trkpt lat="42.97575831" lon="13.78343224">
        <ele>68.000000</ele>
        <time>2024-05-13T11:41:09Z</time>
      </trkpt>
      <trkpt lat="42.97566921" lon="13.78305128">
        <ele>68.000000</ele>
        <time>2024-05-13T11:41:14Z</time>
      </trkpt>
      <trkpt lat="42.97558011" lon="13.78267041">
        <ele>68.000000</ele>
        <time>2024-05-13T11:41:18Z</time>
      </trkpt>
      <trkpt lat="42.97549101" lon="13.78228954">
        <ele>68.000000</ele>
        <time>2024-05-13T11:41:23Z</time>
      </trkpt>
      <trkpt lat="42.97540199" lon="13.78190858">
        <ele>69.000000</ele>
        <time>2024-05-13T11:41:28Z</time>
      </trkpt>
      <trkpt lat="42.97531289" lon="13.78152770">
        <ele>69.000000</ele>
        <time>2024-05-13T11:41:32Z</time>
      </trkpt>
      <trkpt lat="42.97522380" lon="13.78114683">
        <ele>70.000000</ele>
        <time>2024-05-13T11:41:37Z</time>
      </trkpt>
      <trkpt lat="42.97513604" lon="13.78077149">
        <ele>71.000000</ele>
        <time>2024-05-13T11:41:42Z</time>
      </trkpt>
      <trkpt lat="42.97504191" lon="13.78042741">
        <ele>71.000000</ele>
        <time>2024-05-13T11:41:46Z</time>
      </trkpt>
      <trkpt lat="42.97494786" lon="13.78008342">
        <ele>71.000000</ele>
        <time>2024-05-13T11:41:50Z</time>
      </trkpt>
      <trkpt lat="42.97485382" lon="13.77973943">
        <ele>73.000000</ele>
        <time>2024-05-13T11:41:55Z</time>
      </trkpt>
      <trkpt lat="42.97476053" lon="13.77939820">
        <ele>73.000000</ele>
        <time>2024-05-13T11:41:59Z</time>
      </trkpt>
      <trkpt lat="42.97464762" lon="13.77906678">
        <ele>73.000000</ele>
        <time>2024-05-13T11:42:03Z</time>
      </trkpt>
      <trkpt lat="42.97453480" lon="13.77873536">
        <ele>73.000000</ele>
        <time>2024-05-13T11:42:08Z</time>
      </trkpt>
      <trkpt lat="42.97442190" lon="13.77840402">
        <ele>74.000000</ele>
        <time>2024-05-13T11:42:12Z</time>
      </trkpt>
      <trkpt lat="42.97430908" lon="13.77807260">
        <ele>75.000000</ele>
        <time>2024-05-13T11:42:16Z</time>
      </trkpt>
      <trkpt lat="42.97419626" lon="13.77774118">
        <ele>75.000000</ele>
        <time>2024-05-13T11:42:20Z</time>
      </trkpt>
      <trkpt lat="42.97408461" lon="13.77741336">
        <ele>75.000000</ele>
        <time>2024-05-13T11:42:25Z</time>
      </trkpt>
      <trkpt lat="42.97397883" lon="13.77704783">
        <ele>75.000000</ele>
        <time>2024-05-13T11:42:29Z</time>
      </trkpt>
      <trkpt lat="42.97387314" lon="13.77668238">
        <ele>76.000000</ele>
        <time>2024-05-13T11:42:34Z</time>
      </trkpt>
      <trkpt lat="42.97376744" lon="13.77631684">
        <ele>76.000000</ele>
        <time>2024-05-13T11:42:39Z</time>
      </trkpt>
      <trkpt lat="42.97366174" lon="13.77595139">
        <ele>76.000000</ele>
        <time>2024-05-13T11:42:43Z</time>
      </trkpt>
      <trkpt lat="42.97355605" lon="13.77558594">
        <ele>76.000000</ele>
        <time>2024-05-13T11:42:48Z</time>
      </trkpt>
      <trkpt lat="42.97345161" lon="13.77522468">
        <ele>76.000000</ele>
        <time>2024-05-13T11:42:52Z</time>
      </trkpt>
      <trkpt lat="42.97336913" lon="13.77483760">
        <ele>76.000000</ele>
        <time>2024-05-13T11:42:57Z</time>
      </trkpt>
      <trkpt lat="42.97328674" lon="13.77445053">
        <ele>77.000000</ele>
        <time>2024-05-13T11:43:02Z</time>
      </trkpt>
      <trkpt lat="42.97320485" lon="13.77406597">
        <ele>76.000000</ele>
        <time>2024-05-13T11:43:07Z</time>
      </trkpt>
      <trkpt lat="42.97314299" lon="13.77373530">
        <ele>76.000000</ele>
        <time>2024-05-13T11:43:11Z</time>
      </trkpt>
      <trkpt lat="42.97308113" lon="13.77340463">
        <ele>76.000000</ele>
        <time>2024-05-13T11:43:15Z</time>
      </trkpt>
      <trkpt lat="42.97301935" lon="13.77307405">
        <ele>76.000000</ele>
        <time>2024-05-13T11:43:19Z</time>
      </trkpt>
      <trkpt lat="42.97295808" lon="13.77274632">
        <ele>76.000000</ele>
        <time>2024-05-13T11:43:23Z</time>
      </trkpt>
      <trkpt lat="42.97286664" lon="13.77233770">
        <ele>76.000000</ele>
        <time>2024-05-13T11:43:28Z</time>
      </trkpt>
      <trkpt lat="42.97277527" lon="13.77192917">
        <ele>76.000000</ele>
        <time>2024-05-13T11:43:33Z</time>
      </trkpt>
      <trkpt lat="42.97268391" lon="13.77152063">
        <ele>76.000000</ele>
        <time>2024-05-13T11:43:38Z</time>
      </trkpt>
      <trkpt lat="42.97259330" lon="13.77111554">
        <ele>76.000000</ele>
        <time>2024-05-13T11:43:43Z</time>
      </trkpt>
      <trkpt lat="42.97251267" lon="13.77078219">
        <ele>77.000000</ele>
        <time>2024-05-13T11:43:47Z</time>
      </trkpt>
      <trkpt lat="42.97243203" lon="13.77044892">
        <ele>79.000000</ele>
        <time>2024-05-13T11:43:51Z</time>
      </trkpt>
      <trkpt lat="42.97235140" lon="13.77011566">
        <ele>80.000000</ele>
        <time>2024-05-13T11:43:55Z</time>
      </trkpt>
      <trkpt lat="42.97227144" lon="13.76978516">
        <ele>80.000000</ele>
        <time>2024-05-13T11:43:59Z</time>
      </trkpt>
      <trkpt lat="42.97222374" lon="13.76940261">
        <ele>79.000000</ele>
        <time>2024-05-13T11:44:04Z</time>
      </trkpt>
      <trkpt lat="42.97217614" lon="13.76902006">
        <ele>80.000000</ele>
        <time>2024-05-13T11:44:08Z</time>
      </trkpt>
      <trkpt lat="42.97212853" lon="13.76863759">
        <ele>81.000000</ele>
        <time>2024-05-13T11:44:13Z</time>
      </trkpt>
      <trkpt lat="42.97208092" lon="13.76825504">
        <ele>81.000000</ele>
        <time>2024-05-13T11:44:17Z</time>
      </trkpt>
      <trkpt lat="42.97203331" lon="13.76787249">
        <ele>81.000000</ele>
        <time>2024-05-13T11:44:22Z</time>
      </trkpt>
      <trkpt lat="42.97198570" lon="13.76749003">
        <ele>79.000000</ele>
        <time>2024-05-13T11:44:26Z</time>
      </trkpt>
      <trkpt lat="42.97193884" lon="13.76711368">
        <ele>79.000000</ele>
        <time>2024-05-13T11:44:31Z</time>
      </trkpt>
      <trkpt lat="42.97185813" lon="13.76671227">
        <ele>80.000000</ele>
        <time>2024-05-13T11:44:36Z</time>
      </trkpt>
      <trkpt lat="42.97177749" lon="13.76631086">
        <ele>81.000000</ele>
        <time>2024-05-13T11:44:41Z</time>
      </trkpt>
      <trkpt lat="42.97169686" lon="13.76590945">
        <ele>81.000000</ele>
        <time>2024-05-13T11:44:45Z</time>
      </trkpt>
      <trkpt lat="42.97161622" lon="13.76550804">
        <ele>82.000000</ele>
        <time>2024-05-13T11:44:50Z</time>
      </trkpt>
      <trkpt lat="42.97153559" lon="13.76510663">
        <ele>83.000000</ele>
        <time>2024-05-13T11:44:55Z</time>
      </trkpt>
      <trkpt lat="42.97145605" lon="13.76471042">
        <ele>82.000000</ele>
        <time>2024-05-13T11:45:00Z</time>
      </trkpt>
      <trkpt lat="42.97136938" lon="13.76429736">
        <ele>82.000000</ele>
        <time>2024-05-13T11:45:05Z</time>
      </trkpt>
      <trkpt lat="42.97128271" lon="13.76388438">
        <ele>85.000000</ele>
        <time>2024-05-13T11:45:10Z</time>
      </trkpt>
      <trkpt lat="42.97119612" lon="13.76347141">
        <ele>86.000000</ele>
        <time>2024-05-13T11:45:15Z</time>
      </trkpt>
      <trkpt lat="42.97110945" lon="13.76305835">
        <ele>87.000000</ele>
        <time>2024-05-13T11:45:20Z</time>
      </trkpt>
      <trkpt lat="42.97102287" lon="13.76264537">
        <ele>86.000000</ele>
        <time>2024-05-13T11:45:25Z</time>
      </trkpt>
      <trkpt lat="42.97093620" lon="13.76223240">
        <ele>85.000000</ele>
        <time>2024-05-13T11:45:30Z</time>
      </trkpt>
      <trkpt lat="42.97084953" lon="13.76181934">
        <ele>85.000000</ele>
        <time>2024-05-13T11:45:35Z</time>
      </trkpt>
      <trkpt lat="42.97076295" lon="13.76140636">
        <ele>86.000000</ele>
        <time>2024-05-13T11:45:40Z</time>
      </trkpt>
      <trkpt lat="42.97067628" lon="13.76099338">
        <ele>88.000000</ele>
        <time>2024-05-13T11:45:45Z</time>
      </trkpt>
      <trkpt lat="42.97058969" lon="13.76058041">
        <ele>87.000000</ele>
        <time>2024-05-13T11:45:50Z</time>
      </trkpt>
      <trkpt lat="42.97050302" lon="13.76016735">
        <ele>87.000000</ele>
        <time>2024-05-13T11:45:56Z</time>
      </trkpt>
      <trkpt lat="42.97041635" lon="13.75975437">
        <ele>87.000000</ele>
        <time>2024-05-13T11:46:01Z</time>
      </trkpt>
      <trkpt lat="42.97032977" lon="13.75934139">
        <ele>87.000000</ele>
        <time>2024-05-13T11:46:06Z</time>
      </trkpt>
      <trkpt lat="42.97024310" lon="13.75892842">
        <ele>88.000000</ele>
        <time>2024-05-13T11:46:11Z</time>
      </trkpt>
      <trkpt lat="42.97015652" lon="13.75851544">
        <ele>87.000000</ele>
        <time>2024-05-13T11:46:16Z</time>
      </trkpt>
      <trkpt lat="42.97006985" lon="13.75810238">
        <ele>88.000000</ele>
        <time>2024-05-13T11:46:21Z</time>
      </trkpt>
      <trkpt lat="42.96998620" lon="13.75770449">
        <ele>90.000000</ele>
        <time>2024-05-13T11:46:26Z</time>
      </trkpt>
      <trkpt lat="42.96997538" lon="13.75748396">
        <ele>91.000000</ele>
        <time>2024-05-13T11:46:28Z</time>
      </trkpt>
      <trkpt lat="42.96996474" lon="13.75726461">
        <ele>91.000000</ele>
        <time>2024-05-13T11:46:31Z</time>
      </trkpt>
      <trkpt lat="42.96992182" lon="13.75708222">
        <ele>91.000000</ele>
        <time>2024-05-13T11:46:33Z</time>
      </trkpt>
      <trkpt lat="42.96983599" lon="13.75698566">
        <ele>92.000000</ele>
        <time>2024-05-13T11:46:35Z</time>
      </trkpt>
      <trkpt lat="42.96962141" lon="13.75687837">
        <ele>93.000000</ele>
        <time>2024-05-13T11:46:39Z</time>
      </trkpt>
      <trkpt lat="42.96951413" lon="13.75685691">
        <ele>93.000000</ele>
        <time>2024-05-13T11:46:40Z</time>
      </trkpt>
      <trkpt lat="42.96946048" lon="13.75681400">
        <ele>93.000000</ele>
        <time>2024-05-13T11:46:41Z</time>
      </trkpt>
      <trkpt lat="42.96944984" lon="13.75674962">
        <ele>93.000000</ele>
        <time>2024-05-13T11:46:42Z</time>
      </trkpt>
      <trkpt lat="42.96961052" lon="13.75678173">
        <ele>93.000000</ele>
        <time>2024-05-13T11:46:45Z</time>
      </trkpt>
      <trkpt lat="42.96977162" lon="13.75681400">
        <ele>92.000000</ele>
        <time>2024-05-13T11:46:47Z</time>
      </trkpt>
      <trkpt lat="42.96983071" lon="13.75653438">
        <ele>92.000000</ele>
        <time>2024-05-13T11:46:51Z</time>
      </trkpt>
      <trkpt lat="42.96988964" lon="13.75625610">
        <ele>92.000000</ele>
        <time>2024-05-13T11:46:54Z</time>
      </trkpt>
      <trkpt lat="42.96994328" lon="13.75586986">
        <ele>92.000000</ele>
        <time>2024-05-13T11:46:59Z</time>
      </trkpt>
      <trkpt lat="42.96998628" lon="13.75547197">
        <ele>91.000000</ele>
        <time>2024-05-13T11:47:03Z</time>
      </trkpt>
      <trkpt lat="42.97002911" lon="13.75507593">
        <ele>90.000000</ele>
        <time>2024-05-13T11:47:08Z</time>
      </trkpt>
      <trkpt lat="42.97005057" lon="13.75472640">
        <ele>90.000000</ele>
        <time>2024-05-13T11:47:12Z</time>
      </trkpt>
      <trkpt lat="42.97007203" lon="13.75437855">
        <ele>90.000000</ele>
        <time>2024-05-13T11:47:16Z</time>
      </trkpt>
      <trkpt lat="42.97010966" lon="13.75399407">
        <ele>90.000000</ele>
        <time>2024-05-13T11:47:21Z</time>
      </trkpt>
      <trkpt lat="42.97014730" lon="13.75360960">
        <ele>91.000000</ele>
        <time>2024-05-13T11:47:25Z</time>
      </trkpt>
      <trkpt lat="42.97018493" lon="13.75322512">
        <ele>92.000000</ele>
        <time>2024-05-13T11:47:30Z</time>
      </trkpt>
      <trkpt lat="42.97022223" lon="13.75284433">
        <ele>93.000000</ele>
        <time>2024-05-13T11:47:35Z</time>
      </trkpt>
      <trkpt lat="42.97024369" lon="13.75241844">
        <ele>93.000000</ele>
        <time>2024-05-13T11:47:40Z</time>
      </trkpt>
      <trkpt lat="42.97026523" lon="13.75199256">
        <ele>93.000000</ele>
        <time>2024-05-13T11:47:45Z</time>
      </trkpt>
      <trkpt lat="42.97028669" lon="13.75156668">
        <ele>94.000000</ele>
        <time>2024-05-13T11:47:50Z</time>
      </trkpt>
      <trkpt lat="42.97030823" lon="13.75114079">
        <ele>96.000000</ele>
        <time>2024-05-13T11:47:55Z</time>
      </trkpt>
      <trkpt lat="42.97032952" lon="13.75072002">
        <ele>97.000000</ele>
        <time>2024-05-13T11:48:00Z</time>
      </trkpt>
      <trkpt lat="42.97034025" lon="13.75035968">
        <ele>97.000000</ele>
        <time>2024-05-13T11:48:04Z</time>
      </trkpt>
      <trkpt lat="42.97035106" lon="13.74999943">
        <ele>95.000000</ele>
        <time>2024-05-13T11:48:08Z</time>
      </trkpt>
      <trkpt lat="42.97036179" lon="13.74963917">
        <ele>95.000000</ele>
        <time>2024-05-13T11:48:12Z</time>
      </trkpt>
      <trkpt lat="42.97037260" lon="13.74927883">
        <ele>96.000000</ele>
        <time>2024-05-13T11:48:16Z</time>
      </trkpt>
      <trkpt lat="42.97038333" lon="13.74891858">
        <ele>98.000000</ele>
        <time>2024-05-13T11:48:21Z</time>
      </trkpt>
      <trkpt lat="42.97039397" lon="13.74856352">
        <ele>98.000000</ele>
        <time>2024-05-13T11:48:25Z</time>
      </trkpt>
      <trkpt lat="42.97039926" lon="13.74824082">
        <ele>98.000000</ele>
        <time>2024-05-13T11:48:29Z</time>
      </trkpt>
      <trkpt lat="42.97040462" lon="13.74791979">
        <ele>98.000000</ele>
        <time>2024-05-13T11:48:32Z</time>
      </trkpt>
      <trkpt lat="42.97042256" lon="13.74757924">
        <ele>100.00000</ele>
        <time>2024-05-13T11:48:36Z</time>
      </trkpt>
      <trkpt lat="42.97044049" lon="13.74723868">
        <ele>101.00000</ele>
        <time>2024-05-13T11:48:40Z</time>
      </trkpt>
      <trkpt lat="42.97045835" lon="13.74690055">
        <ele>101.00000</ele>
        <time>2024-05-13T11:48:44Z</time>
      </trkpt>
      <trkpt lat="42.97045826" lon="13.74690055">
        <ele>101.00000</ele>
        <time>2024-05-13T11:48:44Z</time>
      </trkpt>
      <trkpt lat="42.97049590" lon="13.74654566">
        <ele>100.00000</ele>
        <time>2024-05-13T11:48:49Z</time>
      </trkpt>
      <trkpt lat="42.97053353" lon="13.74619077">
        <ele>100.00000</ele>
        <time>2024-05-13T11:48:53Z</time>
      </trkpt>
      <trkpt lat="42.97057117" lon="13.74583588">
        <ele>100.00000</ele>
        <time>2024-05-13T11:48:57Z</time>
      </trkpt>
      <trkpt lat="42.97060847" lon="13.74548435">
        <ele>99.000000</ele>
        <time>2024-05-13T11:49:01Z</time>
      </trkpt>
      <trkpt lat="42.97060847" lon="13.74520473">
        <ele>98.000000</ele>
        <time>2024-05-13T11:49:05Z</time>
      </trkpt>
      <trkpt lat="42.97060847" lon="13.74492645">
        <ele>98.000000</ele>
        <time>2024-05-13T11:49:08Z</time>
      </trkpt>
      <trkpt lat="42.97062456" lon="13.74461992">
        <ele>99.000000</ele>
        <time>2024-05-13T11:49:11Z</time>
      </trkpt>
      <trkpt lat="42.97064065" lon="13.74431490">
        <ele>100.00000</ele>
        <time>2024-05-13T11:49:15Z</time>
      </trkpt>
      <trkpt lat="42.97069036" lon="13.74392104">
        <ele>101.00000</ele>
        <time>2024-05-13T11:49:20Z</time>
      </trkpt>
      <trkpt lat="42.97074006" lon="13.74352717">
        <ele>101.00000</ele>
        <time>2024-05-13T11:49:24Z</time>
      </trkpt>
      <trkpt lat="42.97078985" lon="13.74313331">
        <ele>101.00000</ele>
        <time>2024-05-13T11:49:29Z</time>
      </trkpt>
      <trkpt lat="42.97083956" lon="13.74273953">
        <ele>102.00000</ele>
        <time>2024-05-13T11:49:34Z</time>
      </trkpt>
      <trkpt lat="42.97088935" lon="13.74234566">
        <ele>103.00000</ele>
        <time>2024-05-13T11:49:38Z</time>
      </trkpt>
      <trkpt lat="42.97093905" lon="13.74195179">
        <ele>104.00000</ele>
        <time>2024-05-13T11:49:43Z</time>
      </trkpt>
      <trkpt lat="42.97098875" lon="13.74155793">
        <ele>105.00000</ele>
        <time>2024-05-13T11:49:48Z</time>
      </trkpt>
      <trkpt lat="42.97103762" lon="13.74117136">
        <ele>104.00000</ele>
        <time>2024-05-13T11:49:52Z</time>
      </trkpt>
      <trkpt lat="42.97103762" lon="13.74094605">
        <ele>103.00000</ele>
        <time>2024-05-13T11:49:55Z</time>
      </trkpt>
      <trkpt lat="42.97099990" lon="13.74062343">
        <ele>103.00000</ele>
        <time>2024-05-13T11:49:59Z</time>
      </trkpt>
      <trkpt lat="42.97096252" lon="13.74030232">
        <ele>103.00000</ele>
        <time>2024-05-13T11:50:03Z</time>
      </trkpt>
      <trkpt lat="42.97093561" lon="13.73994198">
        <ele>104.00000</ele>
        <time>2024-05-13T11:50:07Z</time>
      </trkpt>
      <trkpt lat="42.97090871" lon="13.73958173">
        <ele>105.00000</ele>
        <time>2024-05-13T11:50:11Z</time>
      </trkpt>
      <trkpt lat="42.97088180" lon="13.73922147">
        <ele>105.00000</ele>
        <time>2024-05-13T11:50:16Z</time>
      </trkpt>
      <trkpt lat="42.97085498" lon="13.73886122">
        <ele>107.00000</ele>
        <time>2024-05-13T11:50:20Z</time>
      </trkpt>
      <trkpt lat="42.97082807" lon="13.73850096">
        <ele>108.00000</ele>
        <time>2024-05-13T11:50:24Z</time>
      </trkpt>
      <trkpt lat="42.97080159" lon="13.73814582">
        <ele>108.00000</ele>
        <time>2024-05-13T11:50:28Z</time>
      </trkpt>
      <trkpt lat="42.97079614" lon="13.73792530">
        <ele>108.00000</ele>
        <time>2024-05-13T11:50:31Z</time>
      </trkpt>
      <trkpt lat="42.97079086" lon="13.73770594">
        <ele>109.00000</ele>
        <time>2024-05-13T11:50:33Z</time>
      </trkpt>
      <trkpt lat="42.97079086" lon="13.73731870">
        <ele>110.00000</ele>
        <time>2024-05-13T11:50:38Z</time>
      </trkpt>
      <trkpt lat="42.97079086" lon="13.73693154">
        <ele>109.00000</ele>
        <time>2024-05-13T11:50:43Z</time>
      </trkpt>
      <trkpt lat="42.97079086" lon="13.73654438">
        <ele>107.00000</ele>
        <time>2024-05-13T11:50:47Z</time>
      </trkpt>
      <trkpt lat="42.97079086" lon="13.73615722">
        <ele>108.00000</ele>
        <time>2024-05-13T11:50:52Z</time>
      </trkpt>
      <trkpt lat="42.97079086" lon="13.73577006">
        <ele>108.00000</ele>
        <time>2024-05-13T11:50:56Z</time>
      </trkpt>
      <trkpt lat="42.97079086" lon="13.73538290">
        <ele>108.00000</ele>
        <time>2024-05-13T11:51:01Z</time>
      </trkpt>
      <trkpt lat="42.97079086" lon="13.73499574">
        <ele>111.00000</ele>
        <time>2024-05-13T11:51:05Z</time>
      </trkpt>
      <trkpt lat="42.97079086" lon="13.73460858">
        <ele>113.00000</ele>
        <time>2024-05-13T11:51:10Z</time>
      </trkpt>
      <trkpt lat="42.97079086" lon="13.73422980">
        <ele>112.00000</ele>
        <time>2024-05-13T11:51:14Z</time>
      </trkpt>
      <trkpt lat="42.97078005" lon="13.73388564">
        <ele>111.00000</ele>
        <time>2024-05-13T11:51:18Z</time>
      </trkpt>
      <trkpt lat="42.97076932" lon="13.73354148">
        <ele>111.00000</ele>
        <time>2024-05-13T11:51:22Z</time>
      </trkpt>
      <trkpt lat="42.97075867" lon="13.73319983">
        <ele>110.00000</ele>
        <time>2024-05-13T11:51:26Z</time>
      </trkpt>
      <trkpt lat="42.97074249" lon="13.73294703">
        <ele>111.00000</ele>
        <time>2024-05-13T11:51:29Z</time>
      </trkpt>
      <trkpt lat="42.97072649" lon="13.73269557">
        <ele>110.00000</ele>
        <time>2024-05-13T11:51:32Z</time>
      </trkpt>
      <trkpt lat="42.97066915" lon="13.73228335">
        <ele>110.00000</ele>
        <time>2024-05-13T11:51:37Z</time>
      </trkpt>
      <trkpt lat="42.97061182" lon="13.73187113">
        <ele>112.00000</ele>
        <time>2024-05-13T11:51:42Z</time>
      </trkpt>
      <trkpt lat="42.97055491" lon="13.73146176">
        <ele>112.00000</ele>
        <time>2024-05-13T11:51:47Z</time>
      </trkpt>
      <trkpt lat="42.97055482" lon="13.73146176">
        <ele>112.00000</ele>
        <time>2024-05-13T11:51:47Z</time>
      </trkpt>
      <trkpt lat="42.97050713" lon="13.73103772">
        <ele>112.00000</ele>
        <time>2024-05-13T11:51:52Z</time>
      </trkpt>
      <trkpt lat="42.97045952" lon="13.73061368">
        <ele>112.00000</ele>
        <time>2024-05-13T11:51:57Z</time>
      </trkpt>
      <trkpt lat="42.97041191" lon="13.73018972">
        <ele>111.00000</ele>
        <time>2024-05-13T11:52:02Z</time>
      </trkpt>
      <trkpt lat="42.97036430" lon="13.72976568">
        <ele>112.00000</ele>
        <time>2024-05-13T11:52:07Z</time>
      </trkpt>
      <trkpt lat="42.97031669" lon="13.72934172">
        <ele>112.00000</ele>
        <time>2024-05-13T11:52:12Z</time>
      </trkpt>
      <trkpt lat="42.97026908" lon="13.72891768">
        <ele>113.00000</ele>
        <time>2024-05-13T11:52:17Z</time>
      </trkpt>
      <trkpt lat="42.97022223" lon="13.72850060">
        <ele>114.00000</ele>
        <time>2024-05-13T11:52:22Z</time>
      </trkpt>
      <trkpt lat="42.97017152" lon="13.72808117">
        <ele>115.00000</ele>
        <time>2024-05-13T11:52:27Z</time>
      </trkpt>
      <trkpt lat="42.97012081" lon="13.72766174">
        <ele>115.00000</ele>
        <time>2024-05-13T11:52:32Z</time>
      </trkpt>
      <trkpt lat="42.97007010" lon="13.72724239">
        <ele>116.00000</ele>
        <time>2024-05-13T11:52:37Z</time>
      </trkpt>
      <trkpt lat="42.97001939" lon="13.72682296">
        <ele>117.00000</ele>
        <time>2024-05-13T11:52:42Z</time>
      </trkpt>
      <trkpt lat="42.96996876" lon="13.72640362">
        <ele>118.00000</ele>
        <time>2024-05-13T11:52:47Z</time>
      </trkpt>
      <trkpt lat="42.96991805" lon="13.72598418">
        <ele>117.00000</ele>
        <time>2024-05-13T11:52:52Z</time>
      </trkpt>
      <trkpt lat="42.96986818" lon="13.72557163">
        <ele>118.00000</ele>
        <time>2024-05-13T11:52:57Z</time>
      </trkpt>
      <trkpt lat="42.96981168" lon="13.72523560">
        <ele>118.00000</ele>
        <time>2024-05-13T11:53:01Z</time>
      </trkpt>
      <trkpt lat="42.96975527" lon="13.72489957">
        <ele>118.00000</ele>
        <time>2024-05-13T11:53:05Z</time>
      </trkpt>
      <trkpt lat="42.96969878" lon="13.72456354">
        <ele>118.00000</ele>
        <time>2024-05-13T11:53:09Z</time>
      </trkpt>
      <trkpt lat="42.96964287" lon="13.72423052">
        <ele>118.00000</ele>
        <time>2024-05-13T11:53:13Z</time>
      </trkpt>
      <trkpt lat="42.96958479" lon="13.72386055">
        <ele>119.00000</ele>
        <time>2024-05-13T11:53:18Z</time>
      </trkpt>
      <trkpt lat="42.96952670" lon="13.72349065">
        <ele>120.00000</ele>
        <time>2024-05-13T11:53:22Z</time>
      </trkpt>
      <trkpt lat="42.96946870" lon="13.72312076">
        <ele>120.00000</ele>
        <time>2024-05-13T11:53:27Z</time>
      </trkpt>
      <trkpt lat="42.96941061" lon="13.72275087">
        <ele>122.00000</ele>
        <time>2024-05-13T11:53:31Z</time>
      </trkpt>
      <trkpt lat="42.96935328" lon="13.72238516">
        <ele>122.00000</ele>
        <time>2024-05-13T11:53:35Z</time>
      </trkpt>
      <trkpt lat="42.96935319" lon="13.72238516">
        <ele>122.00000</ele>
        <time>2024-05-13T11:53:35Z</time>
      </trkpt>
      <trkpt lat="42.96927809" lon="13.72199892">
        <ele>122.00000</ele>
        <time>2024-05-13T11:53:40Z</time>
      </trkpt>
      <trkpt lat="42.96918933" lon="13.72159567">
        <ele>123.00000</ele>
        <time>2024-05-13T11:53:45Z</time>
      </trkpt>
      <trkpt lat="42.96910065" lon="13.72119250">
        <ele>123.00000</ele>
        <time>2024-05-13T11:53:50Z</time>
      </trkpt>
      <trkpt lat="42.96901197" lon="13.72078933">
        <ele>123.00000</ele>
        <time>2024-05-13T11:53:55Z</time>
      </trkpt>
      <trkpt lat="42.96892404" lon="13.72038960">
        <ele>124.00000</ele>
        <time>2024-05-13T11:54:00Z</time>
      </trkpt>
      <trkpt lat="42.96884550" lon="13.71999925">
        <ele>125.00000</ele>
        <time>2024-05-13T11:54:05Z</time>
      </trkpt>
      <trkpt lat="42.96876705" lon="13.71960899">
        <ele>127.00000</ele>
        <time>2024-05-13T11:54:09Z</time>
      </trkpt>
      <trkpt lat="42.96868851" lon="13.71921865">
        <ele>128.00000</ele>
        <time>2024-05-13T11:54:14Z</time>
      </trkpt>
      <trkpt lat="42.96861005" lon="13.71882839">
        <ele>129.00000</ele>
        <time>2024-05-13T11:54:19Z</time>
      </trkpt>
      <trkpt lat="42.96853160" lon="13.71843804">
        <ele>128.00000</ele>
        <time>2024-05-13T11:54:24Z</time>
      </trkpt>
      <trkpt lat="42.96845306" lon="13.71804778">
        <ele>126.00000</ele>
        <time>2024-05-13T11:54:28Z</time>
      </trkpt>
      <trkpt lat="42.96837461" lon="13.71765752">
        <ele>124.00000</ele>
        <time>2024-05-13T11:54:33Z</time>
      </trkpt>
      <trkpt lat="42.96829615" lon="13.71726717">
        <ele>124.00000</ele>
        <time>2024-05-13T11:54:38Z</time>
      </trkpt>
      <trkpt lat="42.96821761" lon="13.71687691">
        <ele>127.00000</ele>
        <time>2024-05-13T11:54:43Z</time>
      </trkpt>
      <trkpt lat="42.96814084" lon="13.71649503">
        <ele>129.00000</ele>
        <time>2024-05-13T11:54:47Z</time>
      </trkpt>
      <trkpt lat="42.96806121" lon="13.71613377">
        <ele>129.00000</ele>
        <time>2024-05-13T11:54:52Z</time>
      </trkpt>
      <trkpt lat="42.96798166" lon="13.71577251">
        <ele>128.00000</ele>
        <time>2024-05-13T11:54:56Z</time>
      </trkpt>
      <trkpt lat="42.96790212" lon="13.71541125">
        <ele>128.00000</ele>
        <time>2024-05-13T11:55:01Z</time>
      </trkpt>
      <trkpt lat="42.96782257" lon="13.71504999">
        <ele>128.00000</ele>
        <time>2024-05-13T11:55:05Z</time>
      </trkpt>
      <trkpt lat="42.96774387" lon="13.71469259">
        <ele>129.00000</ele>
        <time>2024-05-13T11:55:09Z</time>
      </trkpt>
      <trkpt lat="42.96767036" lon="13.71433954">
        <ele>129.00000</ele>
        <time>2024-05-13T11:55:14Z</time>
      </trkpt>
      <trkpt lat="42.96759693" lon="13.71398650">
        <ele>129.00000</ele>
        <time>2024-05-13T11:55:18Z</time>
      </trkpt>
      <trkpt lat="42.96752351" lon="13.71363353">
        <ele>129.00000</ele>
        <time>2024-05-13T11:55:22Z</time>
      </trkpt>
      <trkpt lat="42.96745000" lon="13.71328049">
        <ele>130.00000</ele>
        <time>2024-05-13T11:55:27Z</time>
      </trkpt>
      <trkpt lat="42.96737657" lon="13.71292744">
        <ele>130.00000</ele>
        <time>2024-05-13T11:55:31Z</time>
      </trkpt>
      <trkpt lat="42.96730407" lon="13.71257901">
        <ele>131.00000</ele>
        <time>2024-05-13T11:55:35Z</time>
      </trkpt>
      <trkpt lat="42.96730399" lon="13.71257901">
        <ele>131.00000</ele>
        <time>2024-05-13T11:55:35Z</time>
      </trkpt>
      <trkpt lat="42.96726090" lon="13.71233166">
        <ele>131.00000</ele>
        <time>2024-05-13T11:55:38Z</time>
      </trkpt>
      <trkpt lat="42.96721816" lon="13.71208548">
        <ele>132.00000</ele>
        <time>2024-05-13T11:55:41Z</time>
      </trkpt>
      <trkpt lat="42.96720751" lon="13.71178507">
        <ele>132.00000</ele>
        <time>2024-05-13T11:55:45Z</time>
      </trkpt>
      <trkpt lat="42.96721816" lon="13.71175289">
        <ele>132.00000</ele>
        <time>2024-05-13T11:55:45Z</time>
      </trkpt>
      <trkpt lat="42.96723961" lon="13.71168851">
        <ele>131.00000</ele>
        <time>2024-05-13T11:55:46Z</time>
      </trkpt>
      <trkpt lat="42.96722888" lon="13.71161341">
        <ele>132.00000</ele>
        <time>2024-05-13T11:55:47Z</time>
      </trkpt>
      <trkpt lat="42.96720743" lon="13.71154904">
        <ele>132.00000</ele>
        <time>2024-05-13T11:55:48Z</time>
      </trkpt>
      <trkpt lat="42.96715378" lon="13.71150612">
        <ele>132.00000</ele>
        <time>2024-05-13T11:55:49Z</time>
      </trkpt>
      <trkpt lat="42.96704649" lon="13.71133446">
        <ele>133.00000</ele>
        <time>2024-05-13T11:55:51Z</time>
      </trkpt>
      <trkpt lat="42.96698212" lon="13.71119499">
        <ele>133.00000</ele>
        <time>2024-05-13T11:55:53Z</time>
      </trkpt>
      <trkpt lat="42.96691398" lon="13.71085803">
        <ele>134.00000</ele>
        <time>2024-05-13T11:55:57Z</time>
      </trkpt>
      <trkpt lat="42.96684592" lon="13.71052117">
        <ele>134.00000</ele>
        <time>2024-05-13T11:56:01Z</time>
      </trkpt>
      <trkpt lat="42.96677827" lon="13.71018648">
        <ele>135.00000</ele>
        <time>2024-05-13T11:56:06Z</time>
      </trkpt>
      <trkpt lat="42.96669764" lon="13.70981818">
        <ele>134.00000</ele>
        <time>2024-05-13T11:56:10Z</time>
      </trkpt>
      <trkpt lat="42.96661701" lon="13.70944996">
        <ele>134.00000</ele>
        <time>2024-05-13T11:56:15Z</time>
      </trkpt>
      <trkpt lat="42.96653637" lon="13.70908174">
        <ele>135.00000</ele>
        <time>2024-05-13T11:56:19Z</time>
      </trkpt>
      <trkpt lat="42.96645641" lon="13.70871663">
        <ele>136.00000</ele>
        <time>2024-05-13T11:56:24Z</time>
      </trkpt>
      <trkpt lat="42.96637033" lon="13.70830625">
        <ele>137.00000</ele>
        <time>2024-05-13T11:56:29Z</time>
      </trkpt>
      <trkpt lat="42.96628433" lon="13.70789587">
        <ele>137.00000</ele>
        <time>2024-05-13T11:56:34Z</time>
      </trkpt>
      <trkpt lat="42.96619833" lon="13.70748549">
        <ele>138.00000</ele>
        <time>2024-05-13T11:56:39Z</time>
      </trkpt>
      <trkpt lat="42.96611233" lon="13.70707511">
        <ele>137.00000</ele>
        <time>2024-05-13T11:56:44Z</time>
      </trkpt>
      <trkpt lat="42.96602633" lon="13.70666482">
        <ele>137.00000</ele>
        <time>2024-05-13T11:56:49Z</time>
      </trkpt>
      <trkpt lat="42.96594142" lon="13.70625972">
        <ele>138.00000</ele>
        <time>2024-05-13T11:56:54Z</time>
      </trkpt>
      <trkpt lat="42.96585928" lon="13.70587457">
        <ele>138.00000</ele>
        <time>2024-05-13T11:56:58Z</time>
      </trkpt>
      <trkpt lat="42.96577722" lon="13.70548943">
        <ele>138.00000</ele>
        <time>2024-05-13T11:57:03Z</time>
      </trkpt>
      <trkpt lat="42.96569508" lon="13.70510436">
        <ele>138.00000</ele>
        <time>2024-05-13T11:57:08Z</time>
      </trkpt>
      <trkpt lat="42.96561302" lon="13.70471921">
        <ele>138.00000</ele>
        <time>2024-05-13T11:57:12Z</time>
      </trkpt>
      <trkpt lat="42.96553088" lon="13.70433415">
        <ele>140.00000</ele>
        <time>2024-05-13T11:57:17Z</time>
      </trkpt>
      <trkpt lat="42.96544882" lon="13.70394900">
        <ele>140.00000</ele>
        <time>2024-05-13T11:57:22Z</time>
      </trkpt>
      <trkpt lat="42.96536668" lon="13.70356393">
        <ele>141.00000</ele>
        <time>2024-05-13T11:57:26Z</time>
      </trkpt>
      <trkpt lat="42.96528462" lon="13.70317887">
        <ele>141.00000</ele>
        <time>2024-05-13T11:57:31Z</time>
      </trkpt>
      <trkpt lat="42.96520248" lon="13.70279372">
        <ele>140.00000</ele>
        <time>2024-05-13T11:57:36Z</time>
      </trkpt>
      <trkpt lat="42.96512042" lon="13.70240866">
        <ele>142.00000</ele>
        <time>2024-05-13T11:57:41Z</time>
      </trkpt>
      <trkpt lat="42.96504020" lon="13.70203256">
        <ele>142.00000</ele>
        <time>2024-05-13T11:57:45Z</time>
      </trkpt>
      <trkpt lat="42.96498279" lon="13.70172067">
        <ele>142.00000</ele>
        <time>2024-05-13T11:57:49Z</time>
      </trkpt>
      <trkpt lat="42.96492545" lon="13.70140886">
        <ele>141.00000</ele>
        <time>2024-05-13T11:57:53Z</time>
      </trkpt>
      <trkpt lat="42.96486854" lon="13.70109915">
        <ele>141.00000</ele>
        <time>2024-05-13T11:57:57Z</time>
      </trkpt>
      <trkpt lat="42.96480400" lon="13.70079447">
        <ele>142.00000</ele>
        <time>2024-05-13T11:58:00Z</time>
      </trkpt>
      <trkpt lat="42.96473946" lon="13.70048987">
        <ele>143.00000</ele>
        <time>2024-05-13T11:58:04Z</time>
      </trkpt>
      <trkpt lat="42.96467542" lon="13.70018720">
        <ele>143.00000</ele>
        <time>2024-05-13T11:58:08Z</time>
      </trkpt>
      <trkpt lat="42.96467551" lon="13.70018720">
        <ele>143.00000</ele>
        <time>2024-05-13T11:58:08Z</time>
      </trkpt>
      <trkpt lat="42.96458515" lon="13.69983667">
        <ele>143.00000</ele>
        <time>2024-05-13T11:58:12Z</time>
      </trkpt>
      <trkpt lat="42.96449479" lon="13.69948622">
        <ele>143.00000</ele>
        <time>2024-05-13T11:58:16Z</time>
      </trkpt>
      <trkpt lat="42.96440452" lon="13.69913578">
        <ele>144.00000</ele>
        <time>2024-05-13T11:58:21Z</time>
      </trkpt>
      <trkpt lat="42.96431416" lon="13.69878533">
        <ele>143.00000</ele>
        <time>2024-05-13T11:58:25Z</time>
      </trkpt>
      <trkpt lat="42.96422481" lon="13.69843840">
        <ele>145.00000</ele>
        <time>2024-05-13T11:58:30Z</time>
      </trkpt>
      <trkpt lat="42.96414418" lon="13.69822341">
        <ele>147.00000</ele>
        <time>2024-05-13T11:58:32Z</time>
      </trkpt>
      <trkpt lat="42.96406388" lon="13.69800925">
        <ele>148.00000</ele>
        <time>2024-05-13T11:58:35Z</time>
      </trkpt>
      <trkpt lat="42.96395994" lon="13.69768319">
        <ele>148.00000</ele>
        <time>2024-05-13T11:58:39Z</time>
      </trkpt>
      <trkpt lat="42.96385601" lon="13.69735714">
        <ele>148.00000</ele>
        <time>2024-05-13T11:58:44Z</time>
      </trkpt>
      <trkpt lat="42.96375274" lon="13.69703292">
        <ele>148.00000</ele>
        <time>2024-05-13T11:58:48Z</time>
      </trkpt>
      <trkpt lat="42.96366674" lon="13.69674266">
        <ele>147.00000</ele>
        <time>2024-05-13T11:58:51Z</time>
      </trkpt>
      <trkpt lat="42.96358074" lon="13.69645239">
        <ele>146.00000</ele>
        <time>2024-05-13T11:58:55Z</time>
      </trkpt>
      <trkpt lat="42.96349525" lon="13.69616389">
        <ele>146.00000</ele>
        <time>2024-05-13T11:58:59Z</time>
      </trkpt>
      <trkpt lat="42.96340565" lon="13.69576608">
        <ele>147.00000</ele>
        <time>2024-05-13T11:59:04Z</time>
      </trkpt>
      <trkpt lat="42.96331604" lon="13.69536828">
        <ele>148.00000</ele>
        <time>2024-05-13T11:59:08Z</time>
      </trkpt>
      <trkpt lat="42.96322703" lon="13.69497299">
        <ele>147.00000</ele>
        <time>2024-05-13T11:59:13Z</time>
      </trkpt>
      <trkpt lat="42.96316785" lon="13.69462078">
        <ele>146.00000</ele>
        <time>2024-05-13T11:59:18Z</time>
      </trkpt>
      <trkpt lat="42.96310868" lon="13.69426866">
        <ele>146.00000</ele>
        <time>2024-05-13T11:59:22Z</time>
      </trkpt>
      <trkpt lat="42.96304958" lon="13.69391653">
        <ele>148.00000</ele>
        <time>2024-05-13T11:59:26Z</time>
      </trkpt>
      <trkpt lat="42.96299099" lon="13.69356751">
        <ele>148.00000</ele>
        <time>2024-05-13T11:59:30Z</time>
      </trkpt>
      <trkpt lat="42.96293852" lon="13.69316962">
        <ele>148.00000</ele>
        <time>2024-05-13T11:59:35Z</time>
      </trkpt>
      <trkpt lat="42.96288614" lon="13.69277173">
        <ele>150.00000</ele>
        <time>2024-05-13T11:59:40Z</time>
      </trkpt>
      <trkpt lat="42.96283367" lon="13.69237384">
        <ele>150.00000</ele>
        <time>2024-05-13T11:59:44Z</time>
      </trkpt>
      <trkpt lat="42.96278128" lon="13.69197595">
        <ele>151.00000</ele>
        <time>2024-05-13T11:59:49Z</time>
      </trkpt>
      <trkpt lat="42.96272889" lon="13.69157806">
        <ele>152.00000</ele>
        <time>2024-05-13T11:59:54Z</time>
      </trkpt>
      <trkpt lat="42.96267642" lon="13.69118018">
        <ele>152.00000</ele>
        <time>2024-05-13T11:59:59Z</time>
      </trkpt>
      <trkpt lat="42.96262403" lon="13.69078237">
        <ele>153.00000</ele>
        <time>2024-05-13T12:00:03Z</time>
      </trkpt>
      <trkpt lat="42.96257257" lon="13.69039177">
        <ele>153.00000</ele>
        <time>2024-05-13T12:00:08Z</time>
      </trkpt>
      <trkpt lat="42.96254742" lon="13.69003328">
        <ele>153.00000</ele>
        <time>2024-05-13T12:00:12Z</time>
      </trkpt>
      <trkpt lat="42.96252236" lon="13.68967479">
        <ele>153.00000</ele>
        <time>2024-05-13T12:00:17Z</time>
      </trkpt>
      <trkpt lat="42.96249747" lon="13.68931889">
        <ele>153.00000</ele>
        <time>2024-05-13T12:00:21Z</time>
      </trkpt>
      <trkpt lat="42.96249755" lon="13.68931889">
        <ele>153.00000</ele>
        <time>2024-05-13T12:00:21Z</time>
      </trkpt>
      <trkpt lat="42.96247056" lon="13.68894782">
        <ele>154.00000</ele>
        <time>2024-05-13T12:00:25Z</time>
      </trkpt>
      <trkpt lat="42.96244382" lon="13.68857860">
        <ele>152.00000</ele>
        <time>2024-05-13T12:00:30Z</time>
      </trkpt>
      <trkpt lat="42.96237928" lon="13.68816562">
        <ele>151.00000</ele>
        <time>2024-05-13T12:00:35Z</time>
      </trkpt>
      <trkpt lat="42.96231474" lon="13.68775273">
        <ele>153.00000</ele>
        <time>2024-05-13T12:00:39Z</time>
      </trkpt>
      <trkpt lat="42.96225020" lon="13.68733984">
        <ele>154.00000</ele>
        <time>2024-05-13T12:00:44Z</time>
      </trkpt>
      <trkpt lat="42.96218574" lon="13.68692695">
        <ele>154.00000</ele>
        <time>2024-05-13T12:00:49Z</time>
      </trkpt>
      <trkpt lat="42.96212196" lon="13.68651866">
        <ele>155.00000</ele>
        <time>2024-05-13T12:00:54Z</time>
      </trkpt>
      <trkpt lat="42.96208424" lon="13.68620141">
        <ele>156.00000</ele>
        <time>2024-05-13T12:00:58Z</time>
      </trkpt>
      <trkpt lat="42.96204686" lon="13.68588566">
        <ele>156.00000</ele>
        <time>2024-05-13T12:01:02Z</time>
      </trkpt>
      <trkpt lat="42.96203604" lon="13.68554150">
        <ele>156.00000</ele>
        <time>2024-05-13T12:01:06Z</time>
      </trkpt>
      <trkpt lat="42.96202540" lon="13.68519902">
        <ele>158.00000</ele>
        <time>2024-05-13T12:01:10Z</time>
      </trkpt>
      <trkpt lat="42.96203076" lon="13.68486559">
        <ele>160.00000</ele>
        <time>2024-05-13T12:01:14Z</time>
      </trkpt>
      <trkpt lat="42.96203613" lon="13.68453383">
        <ele>161.00000</ele>
        <time>2024-05-13T12:01:18Z</time>
      </trkpt>
      <trkpt lat="42.96201819" lon="13.68411256">
        <ele>162.00000</ele>
        <time>2024-05-13T12:01:23Z</time>
      </trkpt>
      <trkpt lat="42.96200025" lon="13.68369136">
        <ele>162.00000</ele>
        <time>2024-05-13T12:01:28Z</time>
      </trkpt>
      <trkpt lat="42.96198232" lon="13.68327017">
        <ele>162.00000</ele>
        <time>2024-05-13T12:01:33Z</time>
      </trkpt>
      <trkpt lat="42.96196438" lon="13.68284890">
        <ele>161.00000</ele>
        <time>2024-05-13T12:01:37Z</time>
      </trkpt>
      <trkpt lat="42.96194653" lon="13.68242771">
        <ele>160.00000</ele>
        <time>2024-05-13T12:01:42Z</time>
      </trkpt>
      <trkpt lat="42.96192884" lon="13.68201255">
        <ele>162.00000</ele>
        <time>2024-05-13T12:01:47Z</time>
      </trkpt>
      <trkpt lat="42.96192524" lon="13.68171500">
        <ele>163.00000</ele>
        <time>2024-05-13T12:01:51Z</time>
      </trkpt>
      <trkpt lat="42.96192163" lon="13.68141744">
        <ele>164.00000</ele>
        <time>2024-05-13T12:01:54Z</time>
      </trkpt>
      <trkpt lat="42.96191811" lon="13.68112206">
        <ele>164.00000</ele>
        <time>2024-05-13T12:01:58Z</time>
      </trkpt>
      <trkpt lat="42.96193957" lon="13.68079936">
        <ele>164.00000</ele>
        <time>2024-05-13T12:02:02Z</time>
      </trkpt>
      <trkpt lat="42.96196103" lon="13.68047833">
        <ele>163.00000</ele>
        <time>2024-05-13T12:02:05Z</time>
      </trkpt>
      <trkpt lat="42.96201475" lon="13.68016292">
        <ele>164.00000</ele>
        <time>2024-05-13T12:02:09Z</time>
      </trkpt>
      <trkpt lat="42.96206848" lon="13.67984751">
        <ele>165.00000</ele>
        <time>2024-05-13T12:02:13Z</time>
      </trkpt>
      <trkpt lat="42.96212196" lon="13.67953419">
        <ele>165.00000</ele>
        <time>2024-05-13T12:02:17Z</time>
      </trkpt>
      <trkpt lat="42.96217032" lon="13.67917394">
        <ele>165.00000</ele>
        <time>2024-05-13T12:02:21Z</time>
      </trkpt>
      <trkpt lat="42.96221852" lon="13.67881536">
        <ele>166.00000</ele>
        <time>2024-05-13T12:02:25Z</time>
      </trkpt>
      <trkpt lat="42.96218633" lon="13.67848277">
        <ele>167.00000</ele>
        <time>2024-05-13T12:02:29Z</time>
      </trkpt>
      <trkpt lat="42.96212179" lon="13.67825159">
        <ele>167.00000</ele>
        <time>2024-05-13T12:02:32Z</time>
      </trkpt>
      <trkpt lat="42.96205759" lon="13.67802143">
        <ele>168.00000</ele>
        <time>2024-05-13T12:02:35Z</time>
      </trkpt>
      <trkpt lat="42.96193940" lon="13.67777969">
        <ele>168.00000</ele>
        <time>2024-05-13T12:02:39Z</time>
      </trkpt>
      <trkpt lat="42.96182155" lon="13.67753863">
        <ele>168.00000</ele>
        <time>2024-05-13T12:02:42Z</time>
      </trkpt>
      <trkpt lat="42.96163355" lon="13.67719489">
        <ele>171.00000</ele>
        <time>2024-05-13T12:02:47Z</time>
      </trkpt>
      <trkpt lat="42.96144604" lon="13.67685198">
        <ele>174.00000</ele>
        <time>2024-05-13T12:02:52Z</time>
      </trkpt>
      <trkpt lat="42.96124923" lon="13.67660145">
        <ele>174.00000</ele>
        <time>2024-05-13T12:02:56Z</time>
      </trkpt>
      <trkpt lat="42.96105243" lon="13.67635100">
        <ele>175.00000</ele>
        <time>2024-05-13T12:03:01Z</time>
      </trkpt>
      <trkpt lat="42.96085596" lon="13.67610096">
        <ele>178.00000</ele>
        <time>2024-05-13T12:03:05Z</time>
      </trkpt>
      <trkpt lat="42.96073182" lon="13.67605134">
        <ele>180.00000</ele>
        <time>2024-05-13T12:03:07Z</time>
      </trkpt>
      <trkpt lat="42.96058782" lon="13.67599368">
        <ele>182.00000</ele>
        <time>2024-05-13T12:03:09Z</time>
      </trkpt>
      <trkpt lat="42.96048045" lon="13.67621898">
        <ele>185.00000</ele>
        <time>2024-05-13T12:03:13Z</time>
      </trkpt>
      <trkpt lat="42.96031222" lon="13.67643716">
        <ele>186.00000</ele>
        <time>2024-05-13T12:03:16Z</time>
      </trkpt>
      <trkpt lat="42.96014408" lon="13.67665543">
        <ele>187.00000</ele>
        <time>2024-05-13T12:03:20Z</time>
      </trkpt>
      <trkpt lat="42.95997619" lon="13.67687344">
        <ele>188.00000</ele>
        <time>2024-05-13T12:03:24Z</time>
      </trkpt>
      <trkpt lat="42.95982046" lon="13.67714728">
        <ele>190.00000</ele>
        <time>2024-05-13T12:03:28Z</time>
      </trkpt>
      <trkpt lat="42.95966506" lon="13.67742061">
        <ele>192.00000</ele>
        <time>2024-05-13T12:03:32Z</time>
      </trkpt>
      <trkpt lat="42.95950412" lon="13.67774248">
        <ele>194.00000</ele>
        <time>2024-05-13T12:03:36Z</time>
      </trkpt>
      <trkpt lat="42.95943975" lon="13.67797851">
        <ele>197.00000</ele>
        <time>2024-05-13T12:03:39Z</time>
      </trkpt>
      <trkpt lat="42.95938594" lon="13.67829568">
        <ele>201.00000</ele>
        <time>2024-05-13T12:03:43Z</time>
      </trkpt>
      <trkpt lat="42.95933246" lon="13.67861151">
        <ele>206.00000</ele>
        <time>2024-05-13T12:03:47Z</time>
      </trkpt>
      <trkpt lat="42.95933246" lon="13.67861227">
        <ele>206.00000</ele>
        <time>2024-05-13T12:03:47Z</time>
      </trkpt>
      <trkpt lat="42.95933246" lon="13.67861218">
        <ele>206.00000</ele>
        <time>2024-05-13T12:03:47Z</time>
      </trkpt>
      <trkpt lat="42.95932165" lon="13.67897210">
        <ele>211.00000</ele>
        <time>2024-05-13T12:03:51Z</time>
      </trkpt>
      <trkpt lat="42.95931100" lon="13.67933034">
        <ele>213.00000</ele>
        <time>2024-05-13T12:03:55Z</time>
      </trkpt>
      <trkpt lat="42.95935392" lon="13.67957711">
        <ele>213.00000</ele>
        <time>2024-05-13T12:03:58Z</time>
      </trkpt>
      <trkpt lat="42.95954704" lon="13.67967367">
        <ele>214.00000</ele>
        <time>2024-05-13T12:04:02Z</time>
      </trkpt>
      <trkpt lat="42.95970797" lon="13.67963075">
        <ele>213.00000</ele>
        <time>2024-05-13T12:04:04Z</time>
      </trkpt>
      <trkpt lat="42.95984745" lon="13.67948046">
        <ele>212.00000</ele>
        <time>2024-05-13T12:04:07Z</time>
      </trkpt>
      <trkpt lat="42.95998692" lon="13.67933034">
        <ele>211.00000</ele>
        <time>2024-05-13T12:04:10Z</time>
      </trkpt>
      <trkpt lat="42.96023368" lon="13.67915868">
        <ele>208.00000</ele>
        <time>2024-05-13T12:04:14Z</time>
      </trkpt>
      <trkpt lat="42.96041607" lon="13.67922306">
        <ele>208.00000</ele>
        <time>2024-05-13T12:04:17Z</time>
      </trkpt>
      <trkpt lat="42.96049118" lon="13.67941617">
        <ele>210.00000</ele>
        <time>2024-05-13T12:04:20Z</time>
      </trkpt>
      <trkpt lat="42.96050190" lon="13.67967367">
        <ele>211.00000</ele>
        <time>2024-05-13T12:04:23Z</time>
      </trkpt>
      <trkpt lat="42.96048045" lon="13.67998480">
        <ele>213.00000</ele>
        <time>2024-05-13T12:04:27Z</time>
      </trkpt>
      <trkpt lat="42.96036243" lon="13.68037104">
        <ele>218.00000</ele>
        <time>2024-05-13T12:04:32Z</time>
      </trkpt>
      <trkpt lat="42.96020125" lon="13.68067891">
        <ele>221.00000</ele>
        <time>2024-05-13T12:04:36Z</time>
      </trkpt>
      <trkpt lat="42.96004015" lon="13.68098686">
        <ele>223.00000</ele>
        <time>2024-05-13T12:04:41Z</time>
      </trkpt>
      <trkpt lat="42.95987963" lon="13.68129372">
        <ele>226.00000</ele>
        <time>2024-05-13T12:04:45Z</time>
      </trkpt>
      <trkpt lat="42.95977226" lon="13.68148164">
        <ele>228.00000</ele>
        <time>2024-05-13T12:04:48Z</time>
      </trkpt>
      <trkpt lat="42.95966514" lon="13.68166923">
        <ele>229.00000</ele>
        <time>2024-05-13T12:04:51Z</time>
      </trkpt>
      <trkpt lat="42.95945048" lon="13.68192672">
        <ele>233.00000</ele>
        <time>2024-05-13T12:04:55Z</time>
      </trkpt>
      <trkpt lat="42.95926809" lon="13.68206620">
        <ele>236.00000</ele>
        <time>2024-05-13T12:04:58Z</time>
      </trkpt>
      <trkpt lat="42.95908587" lon="13.68206620">
        <ele>238.00000</ele>
        <time>2024-05-13T12:05:01Z</time>
      </trkpt>
      <trkpt lat="42.95890331" lon="13.68206620">
        <ele>239.00000</ele>
        <time>2024-05-13T12:05:04Z</time>
      </trkpt>
      <trkpt lat="42.95875319" lon="13.68199110">
        <ele>240.00000</ele>
        <time>2024-05-13T12:05:07Z</time>
      </trkpt>
      <trkpt lat="42.95860290" lon="13.68191599">
        <ele>240.00000</ele>
        <time>2024-05-13T12:05:09Z</time>
      </trkpt>
      <trkpt lat="42.95841339" lon="13.68178012">
        <ele>242.00000</ele>
        <time>2024-05-13T12:05:13Z</time>
      </trkpt>
      <trkpt lat="42.95822395" lon="13.68164425">
        <ele>245.00000</ele>
        <time>2024-05-13T12:05:16Z</time>
      </trkpt>
      <trkpt lat="42.95803427" lon="13.68150830">
        <ele>250.00000</ele>
        <time>2024-05-13T12:05:20Z</time>
      </trkpt>
      <trkpt lat="42.95782665" lon="13.68121485">
        <ele>251.00000</ele>
        <time>2024-05-13T12:05:24Z</time>
      </trkpt>
      <trkpt lat="42.95761912" lon="13.68092140">
        <ele>251.00000</ele>
        <time>2024-05-13T12:05:29Z</time>
      </trkpt>
      <trkpt lat="42.95741200" lon="13.68062853">
        <ele>253.00000</ele>
        <time>2024-05-13T12:05:34Z</time>
      </trkpt>
      <trkpt lat="42.95728325" lon="13.68029594">
        <ele>255.00000</ele>
        <time>2024-05-13T12:05:38Z</time>
      </trkpt>
      <trkpt lat="42.95726171" lon="13.67990878">
        <ele>258.00000</ele>
        <time>2024-05-13T12:05:43Z</time>
      </trkpt>
      <trkpt lat="42.95724034" lon="13.67952346">
        <ele>259.00000</ele>
        <time>2024-05-13T12:05:48Z</time>
      </trkpt>
      <trkpt lat="42.95721159" lon="13.67922951">
        <ele>259.00000</ele>
        <time>2024-05-13T12:05:51Z</time>
      </trkpt>
      <trkpt lat="42.95718292" lon="13.67893556">
        <ele>258.00000</ele>
        <time>2024-05-13T12:05:55Z</time>
      </trkpt>
      <trkpt lat="42.95715451" lon="13.67864370">
        <ele>258.00000</ele>
        <time>2024-05-13T12:05:58Z</time>
      </trkpt>
      <trkpt lat="42.95702576" lon="13.67828965">
        <ele>259.00000</ele>
        <time>2024-05-13T12:06:03Z</time>
      </trkpt>
      <trkpt lat="42.95686491" lon="13.67810726">
        <ele>261.00000</ele>
        <time>2024-05-13T12:06:06Z</time>
      </trkpt>
      <trkpt lat="42.95665025" lon="13.67808580">
        <ele>262.00000</ele>
        <time>2024-05-13T12:06:09Z</time>
      </trkpt>
      <trkpt lat="42.95644640" lon="13.67822527">
        <ele>261.00000</ele>
        <time>2024-05-13T12:06:13Z</time>
      </trkpt>
      <trkpt lat="42.95636057" lon="13.67853641">
        <ele>263.00000</ele>
        <time>2024-05-13T12:06:17Z</time>
      </trkpt>
      <trkpt lat="42.95631766" lon="13.67889046">
        <ele>265.00000</ele>
        <time>2024-05-13T12:06:21Z</time>
      </trkpt>
      <trkpt lat="42.95617818" lon="13.67920160">
        <ele>267.00000</ele>
        <time>2024-05-13T12:06:25Z</time>
      </trkpt>
      <trkpt lat="42.95603871" lon="13.67944836">
        <ele>269.00000</ele>
        <time>2024-05-13T12:06:29Z</time>
      </trkpt>
      <trkpt lat="42.95586696" lon="13.67965221">
        <ele>270.00000</ele>
        <time>2024-05-13T12:06:33Z</time>
      </trkpt>
      <trkpt lat="42.95569539" lon="13.67985606">
        <ele>272.00000</ele>
        <time>2024-05-13T12:06:36Z</time>
      </trkpt>
      <trkpt lat="42.95550771" lon="13.67994717">
        <ele>272.00000</ele>
        <time>2024-05-13T12:06:40Z</time>
      </trkpt>
      <trkpt lat="42.95531988" lon="13.68003845">
        <ele>273.00000</ele>
        <time>2024-05-13T12:06:43Z</time>
      </trkpt>
      <trkpt lat="42.95515894" lon="13.68025302">
        <ele>272.00000</ele>
        <time>2024-05-13T12:06:46Z</time>
      </trkpt>
      <trkpt lat="42.95510530" lon="13.68054270">
        <ele>273.00000</ele>
        <time>2024-05-13T12:06:50Z</time>
      </trkpt>
      <trkpt lat="42.95507839" lon="13.68083305">
        <ele>274.00000</ele>
        <time>2024-05-13T12:06:53Z</time>
      </trkpt>
      <trkpt lat="42.95505166" lon="13.68112206">
        <ele>275.00000</ele>
        <time>2024-05-13T12:06:57Z</time>
      </trkpt>
      <trkpt lat="42.95506775" lon="13.68148231">
        <ele>277.00000</ele>
        <time>2024-05-13T12:07:01Z</time>
      </trkpt>
      <trkpt lat="42.95508384" lon="13.68184089">
        <ele>278.00000</ele>
        <time>2024-05-13T12:07:05Z</time>
      </trkpt>
      <trkpt lat="42.95512148" lon="13.68217424">
        <ele>280.00000</ele>
        <time>2024-05-13T12:07:09Z</time>
      </trkpt>
      <trkpt lat="42.95515894" lon="13.68250608">
        <ele>281.00000</ele>
        <time>2024-05-13T12:07:13Z</time>
      </trkpt>
      <trkpt lat="42.95518040" lon="13.68277489">
        <ele>282.00000</ele>
        <time>2024-05-13T12:07:16Z</time>
      </trkpt>
      <trkpt lat="42.95520186" lon="13.68304252">
        <ele>282.00000</ele>
        <time>2024-05-13T12:07:19Z</time>
      </trkpt>
      <trkpt lat="42.95512114" lon="13.68343488">
        <ele>280.00000</ele>
        <time>2024-05-13T12:07:24Z</time>
      </trkpt>
      <trkpt lat="42.95504093" lon="13.68382573">
        <ele>281.00000</ele>
        <time>2024-05-13T12:07:29Z</time>
      </trkpt>
      <trkpt lat="42.95497278" lon="13.68410518">
        <ele>280.00000</ele>
        <time>2024-05-13T12:07:33Z</time>
      </trkpt>
      <trkpt lat="42.95490472" lon="13.68438472">
        <ele>280.00000</ele>
        <time>2024-05-13T12:07:36Z</time>
      </trkpt>
      <trkpt lat="42.95483708" lon="13.68466258">
        <ele>280.00000</ele>
        <time>2024-05-13T12:07:39Z</time>
      </trkpt>
      <trkpt lat="42.95465469" lon="13.68479132">
        <ele>280.00000</ele>
        <time>2024-05-13T12:07:43Z</time>
      </trkpt>
      <trkpt lat="42.95444011" lon="13.68479132">
        <ele>282.00000</ele>
        <time>2024-05-13T12:07:46Z</time>
      </trkpt>
      <trkpt lat="42.95425781" lon="13.68467867">
        <ele>285.00000</ele>
        <time>2024-05-13T12:07:49Z</time>
      </trkpt>
      <trkpt lat="42.95407533" lon="13.68456602">
        <ele>287.00000</ele>
        <time>2024-05-13T12:07:53Z</time>
      </trkpt>
      <trkpt lat="42.95380711" lon="13.68435144">
        <ele>290.00000</ele>
        <time>2024-05-13T12:07:58Z</time>
      </trkpt>
      <trkpt lat="42.95368909" lon="13.68419051">
        <ele>292.00000</ele>
        <time>2024-05-13T12:08:00Z</time>
      </trkpt>
      <trkpt lat="42.95357300" lon="13.68386805">
        <ele>294.00000</ele>
        <time>2024-05-13T12:08:04Z</time>
      </trkpt>
      <trkpt lat="42.95345691" lon="13.68354560">
        <ele>295.00000</ele>
        <time>2024-05-13T12:08:09Z</time>
      </trkpt>
      <trkpt lat="42.95334083" lon="13.68322324">
        <ele>296.00000</ele>
        <time>2024-05-13T12:08:13Z</time>
      </trkpt>
      <trkpt lat="42.95322482" lon="13.68290078">
        <ele>293.00000</ele>
        <time>2024-05-13T12:08:17Z</time>
      </trkpt>
      <trkpt lat="42.95310974" lon="13.68258118">
        <ele>290.00000</ele>
        <time>2024-05-13T12:08:21Z</time>
      </trkpt>
      <trkpt lat="42.95299172" lon="13.68237733">
        <ele>289.00000</ele>
        <time>2024-05-13T12:08:24Z</time>
      </trkpt>
      <trkpt lat="42.95285224" lon="13.68242025">
        <ele>290.00000</ele>
        <time>2024-05-13T12:08:27Z</time>
      </trkpt>
      <trkpt lat="42.95274496" lon="13.68250608">
        <ele>291.00000</ele>
        <time>2024-05-13T12:08:29Z</time>
      </trkpt>
      <trkpt lat="42.95264840" lon="13.68282794">
        <ele>293.00000</ele>
        <time>2024-05-13T12:08:33Z</time>
      </trkpt>
      <trkpt lat="42.95258922" lon="13.68323656">
        <ele>295.00000</ele>
        <time>2024-05-13T12:08:38Z</time>
      </trkpt>
      <trkpt lat="42.95253038" lon="13.68364334">
        <ele>297.00000</ele>
        <time>2024-05-13T12:08:42Z</time>
      </trkpt>
      <trkpt lat="42.95244975" lon="13.68392279">
        <ele>300.00000</ele>
        <time>2024-05-13T12:08:46Z</time>
      </trkpt>
      <trkpt lat="42.95236945" lon="13.68420124">
        <ele>302.00000</ele>
        <time>2024-05-13T12:08:49Z</time>
      </trkpt>
      <trkpt lat="42.95227272" lon="13.68445370">
        <ele>304.00000</ele>
        <time>2024-05-13T12:08:53Z</time>
      </trkpt>
      <trkpt lat="42.95217633" lon="13.68470549">
        <ele>305.00000</ele>
        <time>2024-05-13T12:08:56Z</time>
      </trkpt>
      <trkpt lat="42.95200458" lon="13.68489861">
        <ele>305.00000</ele>
        <time>2024-05-13T12:09:00Z</time>
      </trkpt>
      <trkpt lat="42.95183300" lon="13.68509173">
        <ele>305.00000</ele>
        <time>2024-05-13T12:09:03Z</time>
      </trkpt>
      <trkpt lat="42.95160074" lon="13.68518460">
        <ele>305.00000</ele>
        <time>2024-05-13T12:09:07Z</time>
      </trkpt>
      <trkpt lat="42.95136848" lon="13.68527747">
        <ele>306.00000</ele>
        <time>2024-05-13T12:09:11Z</time>
      </trkpt>
      <trkpt lat="42.95113563" lon="13.68537068">
        <ele>308.00000</ele>
        <time>2024-05-13T12:09:15Z</time>
      </trkpt>
      <trkpt lat="42.95090764" lon="13.68544662">
        <ele>309.00000</ele>
        <time>2024-05-13T12:09:19Z</time>
      </trkpt>
      <trkpt lat="42.95067974" lon="13.68552256">
        <ele>311.00000</ele>
        <time>2024-05-13T12:09:22Z</time>
      </trkpt>
      <trkpt lat="42.95045116" lon="13.68559883">
        <ele>313.00000</ele>
        <time>2024-05-13T12:09:26Z</time>
      </trkpt>
      <trkpt lat="42.95042753" lon="13.68560671">
        <ele>313.00000</ele>
        <time>2024-05-13T12:09:27Z</time>
      </trkpt>
      <trkpt lat="42.95011639" lon="13.68563890">
        <ele>316.00000</ele>
        <time>2024-05-13T12:09:32Z</time>
      </trkpt>
      <trkpt lat="42.94992327" lon="13.68557453">
        <ele>319.00000</ele>
        <time>2024-05-13T12:09:35Z</time>
      </trkpt>
      <trkpt lat="42.94968724" lon="13.68544578">
        <ele>321.00000</ele>
        <time>2024-05-13T12:09:39Z</time>
      </trkpt>
      <trkpt lat="42.94950485" lon="13.68547797">
        <ele>322.00000</ele>
        <time>2024-05-13T12:09:42Z</time>
      </trkpt>
      <trkpt lat="42.94936546" lon="13.68558526">
        <ele>323.00000</ele>
        <time>2024-05-13T12:09:44Z</time>
      </trkpt>
      <trkpt lat="42.94930100" lon="13.68562817">
        <ele>324.00000</ele>
        <time>2024-05-13T12:09:45Z</time>
      </trkpt>
      <trkpt lat="42.94908626" lon="13.68589648">
        <ele>325.00000</ele>
        <time>2024-05-13T12:09:50Z</time>
      </trkpt>
      <trkpt lat="42.94887185" lon="13.68616461">
        <ele>327.00000</ele>
        <time>2024-05-13T12:09:55Z</time>
      </trkpt>
      <trkpt lat="42.94862508" lon="13.68642210">
        <ele>327.00000</ele>
        <time>2024-05-13T12:10:00Z</time>
      </trkpt>
      <trkpt lat="42.94837832" lon="13.68655085">
        <ele>327.00000</ele>
        <time>2024-05-13T12:10:04Z</time>
      </trkpt>
      <trkpt lat="42.94815855" lon="13.68660978">
        <ele>327.00000</ele>
        <time>2024-05-13T12:10:08Z</time>
      </trkpt>
      <trkpt lat="42.94793844" lon="13.68666887">
        <ele>326.00000</ele>
        <time>2024-05-13T12:10:11Z</time>
      </trkpt>
      <trkpt lat="42.94771313" lon="13.68656158">
        <ele>327.00000</ele>
        <time>2024-05-13T12:10:15Z</time>
      </trkpt>
      <trkpt lat="42.94746100" lon="13.68634164">
        <ele>332.00000</ele>
        <time>2024-05-13T12:10:20Z</time>
      </trkpt>
      <trkpt lat="42.94720888" lon="13.68612170">
        <ele>336.00000</ele>
        <time>2024-05-13T12:10:25Z</time>
      </trkpt>
      <trkpt lat="42.94706940" lon="13.68613243">
        <ele>337.00000</ele>
        <time>2024-05-13T12:10:27Z</time>
      </trkpt>
      <trkpt lat="42.94690327" lon="13.68617526">
        <ele>339.00000</ele>
        <time>2024-05-13T12:10:29Z</time>
      </trkpt>
      <trkpt lat="42.94673681" lon="13.68621826">
        <ele>341.00000</ele>
        <time>2024-05-13T12:10:32Z</time>
      </trkpt>
      <trkpt lat="42.94651703" lon="13.68632001">
        <ele>342.00000</ele>
        <time>2024-05-13T12:10:36Z</time>
      </trkpt>
      <trkpt lat="42.94629693" lon="13.68642210">
        <ele>342.00000</ele>
        <time>2024-05-13T12:10:40Z</time>
      </trkpt>
      <trkpt lat="42.94605251" lon="13.68654859">
        <ele>342.00000</ele>
        <time>2024-05-13T12:10:44Z</time>
      </trkpt>
      <trkpt lat="42.94580809" lon="13.68667507">
        <ele>343.00000</ele>
        <time>2024-05-13T12:10:48Z</time>
      </trkpt>
      <trkpt lat="42.94556368" lon="13.68680155">
        <ele>346.00000</ele>
        <time>2024-05-13T12:10:52Z</time>
      </trkpt>
      <trkpt lat="42.94531926" lon="13.68692812">
        <ele>351.00000</ele>
        <time>2024-05-13T12:10:56Z</time>
      </trkpt>
      <trkpt lat="42.94507392" lon="13.68705511">
        <ele>354.00000</ele>
        <time>2024-05-13T12:11:01Z</time>
      </trkpt>
      <trkpt lat="42.94496655" lon="13.68710875">
        <ele>355.00000</ele>
        <time>2024-05-13T12:11:02Z</time>
      </trkpt>
      <trkpt lat="42.94480042" lon="13.68715695">
        <ele>358.00000</ele>
        <time>2024-05-13T12:11:05Z</time>
      </trkpt>
      <trkpt lat="42.94463396" lon="13.68720531">
        <ele>360.00000</ele>
        <time>2024-05-13T12:11:08Z</time>
      </trkpt>
      <trkpt lat="42.94443011" lon="13.68720531">
        <ele>363.00000</ele>
        <time>2024-05-13T12:11:11Z</time>
      </trkpt>
      <trkpt lat="42.94438585" lon="13.68722802">
        <ele>363.00000</ele>
        <time>2024-05-13T12:11:12Z</time>
      </trkpt>
      <trkpt lat="42.94438585" lon="13.68722811">
        <ele>363.00000</ele>
        <time>2024-05-13T12:11:12Z</time>
      </trkpt>
      <trkpt lat="42.94422031" lon="13.68731318">
        <ele>364.00000</ele>
        <time>2024-05-13T12:11:15Z</time>
      </trkpt>
      <trkpt lat="42.94405460" lon="13.68739843">
        <ele>364.00000</ele>
        <time>2024-05-13T12:11:17Z</time>
      </trkpt>
      <trkpt lat="42.94382376" lon="13.68768819">
        <ele>363.00000</ele>
        <time>2024-05-13T12:11:23Z</time>
      </trkpt>
      <trkpt lat="42.94359326" lon="13.68797779">
        <ele>361.00000</ele>
        <time>2024-05-13T12:11:28Z</time>
      </trkpt>
      <trkpt lat="42.94356107" lon="13.68796706">
        <ele>361.00000</ele>
        <time>2024-05-13T12:11:28Z</time>
      </trkpt>
      <trkpt lat="42.94343233" lon="13.68827819">
        <ele>360.00000</ele>
        <time>2024-05-13T12:11:32Z</time>
      </trkpt>
      <trkpt lat="42.94336242" lon="13.68850928">
        <ele>360.00000</ele>
        <time>2024-05-13T12:11:35Z</time>
      </trkpt>
      <trkpt lat="42.94329285" lon="13.68873953">
        <ele>360.00000</ele>
        <time>2024-05-13T12:11:38Z</time>
      </trkpt>
      <trkpt lat="42.94321758" lon="13.68908353">
        <ele>361.00000</ele>
        <time>2024-05-13T12:11:42Z</time>
      </trkpt>
      <trkpt lat="42.94314265" lon="13.68942618">
        <ele>362.00000</ele>
        <time>2024-05-13T12:11:47Z</time>
      </trkpt>
      <trkpt lat="42.94314273" lon="13.68973731">
        <ele>362.00000</ele>
        <time>2024-05-13T12:11:50Z</time>
      </trkpt>
      <trkpt lat="42.94318565" lon="13.69010830">
        <ele>360.00000</ele>
        <time>2024-05-13T12:11:55Z</time>
      </trkpt>
      <trkpt lat="42.94322848" lon="13.69047760">
        <ele>360.00000</ele>
        <time>2024-05-13T12:11:59Z</time>
      </trkpt>
      <trkpt lat="42.94325538" lon="13.69081095">
        <ele>360.00000</ele>
        <time>2024-05-13T12:12:03Z</time>
      </trkpt>
      <trkpt lat="42.94328221" lon="13.69114279">
        <ele>361.00000</ele>
        <time>2024-05-13T12:12:07Z</time>
      </trkpt>
      <trkpt lat="42.94328212" lon="13.69140028">
        <ele>361.00000</ele>
        <time>2024-05-13T12:12:10Z</time>
      </trkpt>
      <trkpt lat="42.94322295" lon="13.69162064">
        <ele>360.00000</ele>
        <time>2024-05-13T12:12:13Z</time>
      </trkpt>
      <trkpt lat="42.94316411" lon="13.69184017">
        <ele>360.00000</ele>
        <time>2024-05-13T12:12:15Z</time>
      </trkpt>
      <trkpt lat="42.94305682" lon="13.69208693">
        <ele>358.00000</ele>
        <time>2024-05-13T12:12:19Z</time>
      </trkpt>
      <trkpt lat="42.94293880" lon="13.69229078">
        <ele>357.00000</ele>
        <time>2024-05-13T12:12:22Z</time>
      </trkpt>
      <trkpt lat="42.94281005" lon="13.69246244">
        <ele>355.00000</ele>
        <time>2024-05-13T12:12:25Z</time>
      </trkpt>
      <trkpt lat="42.94262398" lon="13.69269495">
        <ele>354.00000</ele>
        <time>2024-05-13T12:12:29Z</time>
      </trkpt>
      <trkpt lat="42.94243790" lon="13.69292755">
        <ele>352.00000</ele>
        <time>2024-05-13T12:12:33Z</time>
      </trkpt>
      <trkpt lat="42.94225215" lon="13.69315981">
        <ele>351.00000</ele>
        <time>2024-05-13T12:12:37Z</time>
      </trkpt>
      <trkpt lat="42.94218778" lon="13.69322419">
        <ele>350.00000</ele>
        <time>2024-05-13T12:12:38Z</time>
      </trkpt>
      <trkpt lat="42.94210195" lon="13.69325637">
        <ele>350.00000</ele>
        <time>2024-05-13T12:12:40Z</time>
      </trkpt>
      <trkpt lat="42.94191956" lon="13.69326710">
        <ele>348.00000</ele>
        <time>2024-05-13T12:12:42Z</time>
      </trkpt>
      <trkpt lat="42.94167280" lon="13.69323492">
        <ele>348.00000</ele>
        <time>2024-05-13T12:12:46Z</time>
      </trkpt>
      <trkpt lat="42.94158697" lon="13.69324564">
        <ele>347.00000</ele>
        <time>2024-05-13T12:12:48Z</time>
      </trkpt>
      <trkpt lat="42.94140458" lon="13.69334220">
        <ele>348.00000</ele>
        <time>2024-05-13T12:12:51Z</time>
      </trkpt>
      <trkpt lat="42.94120073" lon="13.69350314">
        <ele>347.00000</ele>
        <time>2024-05-13T12:12:55Z</time>
      </trkpt>
      <trkpt lat="42.94096469" lon="13.69372844">
        <ele>344.00000</ele>
        <time>2024-05-13T12:12:59Z</time>
      </trkpt>
      <trkpt lat="42.94084668" lon="13.69387865">
        <ele>344.00000</ele>
        <time>2024-05-13T12:13:02Z</time>
      </trkpt>
      <trkpt lat="42.94070720" lon="13.69413614">
        <ele>342.00000</ele>
        <time>2024-05-13T12:13:06Z</time>
      </trkpt>
      <trkpt lat="42.94057016" lon="13.69452296">
        <ele>340.00000</ele>
        <time>2024-05-13T12:13:11Z</time>
      </trkpt>
      <trkpt lat="42.94043311" lon="13.69490987">
        <ele>339.00000</ele>
        <time>2024-05-13T12:13:16Z</time>
      </trkpt>
      <trkpt lat="42.94029607" lon="13.69529678">
        <ele>339.00000</ele>
        <time>2024-05-13T12:13:21Z</time>
      </trkpt>
      <trkpt lat="42.94016003" lon="13.69568109">
        <ele>338.00000</ele>
        <time>2024-05-13T12:13:26Z</time>
      </trkpt>
      <trkpt lat="42.94006347" lon="13.69582056">
        <ele>336.00000</ele>
        <time>2024-05-13T12:13:28Z</time>
      </trkpt>
      <trkpt lat="42.93988108" lon="13.69599223">
        <ele>335.00000</ele>
        <time>2024-05-13T12:13:32Z</time>
      </trkpt>
      <trkpt lat="42.93970942" lon="13.69605660">
        <ele>334.00000</ele>
        <time>2024-05-13T12:13:34Z</time>
      </trkpt>
      <trkpt lat="42.93959149" lon="13.69605660">
        <ele>334.00000</ele>
        <time>2024-05-13T12:13:36Z</time>
      </trkpt>
      <trkpt lat="42.93950557" lon="13.69601368">
        <ele>334.00000</ele>
        <time>2024-05-13T12:13:38Z</time>
      </trkpt>
      <trkpt lat="42.93950566" lon="13.69601368">
        <ele>334.00000</ele>
        <time>2024-05-13T12:13:38Z</time>
      </trkpt>
      <trkpt lat="42.93923744" lon="13.69581704">
        <ele>332.00000</ele>
        <time>2024-05-13T12:13:43Z</time>
      </trkpt>
      <trkpt lat="42.93896930" lon="13.69562041">
        <ele>330.00000</ele>
        <time>2024-05-13T12:13:48Z</time>
      </trkpt>
      <trkpt lat="42.93870091" lon="13.69542360">
        <ele>328.00000</ele>
        <time>2024-05-13T12:13:52Z</time>
      </trkpt>
      <trkpt lat="42.93862581" lon="13.69539141">
        <ele>328.00000</ele>
        <time>2024-05-13T12:13:54Z</time>
      </trkpt>
      <trkpt lat="42.93853998" lon="13.69536995">
        <ele>327.00000</ele>
        <time>2024-05-13T12:13:55Z</time>
      </trkpt>
      <trkpt lat="42.93844350" lon="13.69539141">
        <ele>327.00000</ele>
        <time>2024-05-13T12:13:57Z</time>
      </trkpt>
      <trkpt lat="42.93835759" lon="13.69546651">
        <ele>327.00000</ele>
        <time>2024-05-13T12:13:58Z</time>
      </trkpt>
      <trkpt lat="42.93830394" lon="13.69555234">
        <ele>327.00000</ele>
        <time>2024-05-13T12:14:00Z</time>
      </trkpt>
      <trkpt lat="42.93814997" lon="13.69584948">
        <ele>326.00000</ele>
        <time>2024-05-13T12:14:04Z</time>
      </trkpt>
      <trkpt lat="42.93799599" lon="13.69614670">
        <ele>325.00000</ele>
        <time>2024-05-13T12:14:08Z</time>
      </trkpt>
      <trkpt lat="42.93784260" lon="13.69644284">
        <ele>325.00000</ele>
        <time>2024-05-13T12:14:12Z</time>
      </trkpt>
      <trkpt lat="42.93779977" lon="13.69659304">
        <ele>325.00000</ele>
        <time>2024-05-13T12:14:14Z</time>
      </trkpt>
      <trkpt lat="42.93775677" lon="13.69673252">
        <ele>324.00000</ele>
        <time>2024-05-13T12:14:16Z</time>
      </trkpt>
      <trkpt lat="42.93770413" lon="13.69704809">
        <ele>322.00000</ele>
        <time>2024-05-13T12:14:20Z</time>
      </trkpt>
      <trkpt lat="42.93770413" lon="13.69704818">
        <ele>322.00000</ele>
        <time>2024-05-13T12:14:20Z</time>
      </trkpt>
      <trkpt lat="42.93768175" lon="13.69718313">
        <ele>321.00000</ele>
        <time>2024-05-13T12:14:21Z</time>
      </trkpt>
      <trkpt lat="42.93767094" lon="13.69722604">
        <ele>321.00000</ele>
        <time>2024-05-13T12:14:22Z</time>
      </trkpt>
      <trkpt lat="42.93756365" lon="13.69731187">
        <ele>320.00000</ele>
        <time>2024-05-13T12:14:24Z</time>
      </trkpt>
      <trkpt lat="42.93751001" lon="13.69726896">
        <ele>318.00000</ele>
        <time>2024-05-13T12:14:25Z</time>
      </trkpt>
      <trkpt lat="42.93746709" lon="13.69718313">
        <ele>316.00000</ele>
        <time>2024-05-13T12:14:26Z</time>
      </trkpt>
      <trkpt lat="42.93752510" lon="13.69681960">
        <ele>316.00000</ele>
        <time>2024-05-13T12:14:31Z</time>
      </trkpt>
      <trkpt lat="42.93758318" lon="13.69645616">
        <ele>317.00000</ele>
        <time>2024-05-13T12:14:35Z</time>
      </trkpt>
      <trkpt lat="42.93764127" lon="13.69609273">
        <ele>314.00000</ele>
        <time>2024-05-13T12:14:39Z</time>
      </trkpt>
      <trkpt lat="42.93769936" lon="13.69572929">
        <ele>313.00000</ele>
        <time>2024-05-13T12:14:44Z</time>
      </trkpt>
      <trkpt lat="42.93775686" lon="13.69536995">
        <ele>312.00000</ele>
        <time>2024-05-13T12:14:48Z</time>
      </trkpt>
      <trkpt lat="42.93782131" lon="13.69499713">
        <ele>311.00000</ele>
        <time>2024-05-13T12:14:53Z</time>
      </trkpt>
      <trkpt lat="42.93788577" lon="13.69462438">
        <ele>308.00000</ele>
        <time>2024-05-13T12:14:57Z</time>
      </trkpt>
      <trkpt lat="42.93794989" lon="13.69425415">
        <ele>307.00000</ele>
        <time>2024-05-13T12:15:01Z</time>
      </trkpt>
      <trkpt lat="42.93798753" lon="13.69399608">
        <ele>307.00000</ele>
        <time>2024-05-13T12:15:05Z</time>
      </trkpt>
      <trkpt lat="42.93802499" lon="13.69373917">
        <ele>307.00000</ele>
        <time>2024-05-13T12:15:08Z</time>
      </trkpt>
      <trkpt lat="42.93800354" lon="13.69355678">
        <ele>305.00000</ele>
        <time>2024-05-13T12:15:10Z</time>
      </trkpt>
      <trkpt lat="42.93796062" lon="13.69341731">
        <ele>303.00000</ele>
        <time>2024-05-13T12:15:12Z</time>
      </trkpt>
      <trkpt lat="42.93788560" lon="13.69329929">
        <ele>301.00000</ele>
        <time>2024-05-13T12:15:13Z</time>
      </trkpt>
      <trkpt lat="42.93788552" lon="13.69329929">
        <ele>301.00000</ele>
        <time>2024-05-13T12:15:13Z</time>
      </trkpt>
      <trkpt lat="42.93779969" lon="13.69322419">
        <ele>300.00000</ele>
        <time>2024-05-13T12:15:15Z</time>
      </trkpt>
      <trkpt lat="42.93770321" lon="13.69318127">
        <ele>299.00000</ele>
        <time>2024-05-13T12:15:17Z</time>
      </trkpt>
      <trkpt lat="42.93761738" lon="13.69317054">
        <ele>299.00000</ele>
        <time>2024-05-13T12:15:18Z</time>
      </trkpt>
      <trkpt lat="42.93745636" lon="13.69317054">
        <ele>299.00000</ele>
        <time>2024-05-13T12:15:21Z</time>
      </trkpt>
      <trkpt lat="42.93727406" lon="13.69318127">
        <ele>300.00000</ele>
        <time>2024-05-13T12:15:24Z</time>
      </trkpt>
      <trkpt lat="42.93723114" lon="13.69318127">
        <ele>301.00000</ele>
        <time>2024-05-13T12:15:24Z</time>
      </trkpt>
      <trkpt lat="42.93713458" lon="13.69319200">
        <ele>301.00000</ele>
        <time>2024-05-13T12:15:26Z</time>
      </trkpt>
      <trkpt lat="42.93699159" lon="13.69319795">
        <ele>300.00000</ele>
        <time>2024-05-13T12:15:28Z</time>
      </trkpt>
      <trkpt lat="42.93687709" lon="13.69320273">
        <ele>300.00000</ele>
        <time>2024-05-13T12:15:30Z</time>
      </trkpt>
      <trkpt lat="42.93678053" lon="13.69310617">
        <ele>302.00000</ele>
        <time>2024-05-13T12:15:32Z</time>
      </trkpt>
      <trkpt lat="42.93679126" lon="13.69308471">
        <ele>302.00000</ele>
        <time>2024-05-13T12:15:32Z</time>
      </trkpt>
      <trkpt lat="42.93678045" lon="13.69302034">
        <ele>303.00000</ele>
        <time>2024-05-13T12:15:33Z</time>
      </trkpt>
      <trkpt lat="42.93671607" lon="13.69299888">
        <ele>303.00000</ele>
        <time>2024-05-13T12:15:34Z</time>
      </trkpt>
      <trkpt lat="42.93668389" lon="13.69303107">
        <ele>303.00000</ele>
        <time>2024-05-13T12:15:35Z</time>
      </trkpt>
      <trkpt lat="42.93667316" lon="13.69309544">
        <ele>302.00000</ele>
        <time>2024-05-13T12:15:35Z</time>
      </trkpt>
      <trkpt lat="42.93666251" lon="13.69309544">
        <ele>302.00000</ele>
        <time>2024-05-13T12:15:36Z</time>
      </trkpt>
      <trkpt lat="42.93655514" lon="13.69311690">
        <ele>301.00000</ele>
        <time>2024-05-13T12:15:37Z</time>
      </trkpt>
      <trkpt lat="42.93638356" lon="13.69318127">
        <ele>298.00000</ele>
        <time>2024-05-13T12:15:40Z</time>
      </trkpt>
      <trkpt lat="42.93631919" lon="13.69319200">
        <ele>297.00000</ele>
        <time>2024-05-13T12:15:41Z</time>
      </trkpt>
      <trkpt lat="42.93629773" lon="13.69319200">
        <ele>297.00000</ele>
        <time>2024-05-13T12:15:42Z</time>
      </trkpt>
      <trkpt lat="42.93619036" lon="13.69319200">
        <ele>296.00000</ele>
        <time>2024-05-13T12:15:43Z</time>
      </trkpt>
      <trkpt lat="42.93613672" lon="13.69299888">
        <ele>299.00000</ele>
        <time>2024-05-13T12:15:46Z</time>
      </trkpt>
      <trkpt lat="42.93613672" lon="13.69284868">
        <ele>301.00000</ele>
        <time>2024-05-13T12:15:47Z</time>
      </trkpt>
      <trkpt lat="42.93613680" lon="13.69275212">
        <ele>302.00000</ele>
        <time>2024-05-13T12:15:49Z</time>
      </trkpt>
      <trkpt lat="42.93613680" lon="13.69244098">
        <ele>305.00000</ele>
        <time>2024-05-13T12:15:52Z</time>
      </trkpt>
      <trkpt lat="42.93613672" lon="13.69244098">
        <ele>305.00000</ele>
        <time>2024-05-13T12:15:52Z</time>
      </trkpt>
      <trkpt lat="42.93614745" lon="13.69219900">
        <ele>306.00000</ele>
        <time>2024-05-13T12:15:55Z</time>
      </trkpt>
      <trkpt lat="42.93615818" lon="13.69195818">
        <ele>306.00000</ele>
        <time>2024-05-13T12:15:58Z</time>
      </trkpt>
      <trkpt lat="42.93619036" lon="13.69160413">
        <ele>303.00000</ele>
        <time>2024-05-13T12:16:02Z</time>
      </trkpt>
      <trkpt lat="42.93606162" lon="13.69155049">
        <ele>303.00000</ele>
        <time>2024-05-13T12:16:04Z</time>
      </trkpt>
      <trkpt lat="42.93585777" lon="13.69129300">
        <ele>301.00000</ele>
        <time>2024-05-13T12:16:09Z</time>
      </trkpt>
      <trkpt lat="42.93575048" lon="13.69123935">
        <ele>301.00000</ele>
        <time>2024-05-13T12:16:11Z</time>
      </trkpt>
      <trkpt lat="42.93560036" lon="13.69107842">
        <ele>300.00000</ele>
        <time>2024-05-13T12:16:14Z</time>
      </trkpt>
      <trkpt lat="42.93550380" lon="13.69091749">
        <ele>298.00000</ele>
        <time>2024-05-13T12:16:16Z</time>
      </trkpt>
      <trkpt lat="42.93549299" lon="13.69089603">
        <ele>298.00000</ele>
        <time>2024-05-13T12:16:16Z</time>
      </trkpt>
      <trkpt lat="42.93545007" lon="13.69092822">
        <ele>298.00000</ele>
        <time>2024-05-13T12:16:17Z</time>
      </trkpt>
      <trkpt lat="42.93514966" lon="13.69093894">
        <ele>297.00000</ele>
        <time>2024-05-13T12:16:22Z</time>
      </trkpt>
      <trkpt lat="42.93508529" lon="13.69094967">
        <ele>297.00000</ele>
        <time>2024-05-13T12:16:23Z</time>
      </trkpt>
      <trkpt lat="42.93490299" lon="13.69091749">
        <ele>297.00000</ele>
        <time>2024-05-13T12:16:26Z</time>
      </trkpt>
      <trkpt lat="42.93474750" lon="13.69085848">
        <ele>298.00000</ele>
        <time>2024-05-13T12:16:28Z</time>
      </trkpt>
      <trkpt lat="42.93459177" lon="13.69079947">
        <ele>298.00000</ele>
        <time>2024-05-13T12:16:31Z</time>
      </trkpt>
      <trkpt lat="42.93440937" lon="13.69069218">
        <ele>297.00000</ele>
        <time>2024-05-13T12:16:34Z</time>
      </trkpt>
      <trkpt lat="42.93435573" lon="13.69068145">
        <ele>297.00000</ele>
        <time>2024-05-13T12:16:35Z</time>
      </trkpt>
      <trkpt lat="42.93425917" lon="13.69054198">
        <ele>296.00000</ele>
        <time>2024-05-13T12:16:37Z</time>
      </trkpt>
      <trkpt lat="42.93424853" lon="13.69056344">
        <ele>296.00000</ele>
        <time>2024-05-13T12:16:38Z</time>
      </trkpt>
      <trkpt lat="42.93429136" lon="13.69062781">
        <ele>296.00000</ele>
        <time>2024-05-13T12:16:39Z</time>
      </trkpt>
      <trkpt lat="42.93441432" lon="13.69077734">
        <ele>298.00000</ele>
        <time>2024-05-13T12:16:41Z</time>
      </trkpt>
      <trkpt lat="42.93453728" lon="13.69092679">
        <ele>299.00000</ele>
        <time>2024-05-13T12:16:44Z</time>
      </trkpt>
    </trkseg>
  </trk>
</gpx>

